Home > Products > Valid Products > OSO

000
SXUS55 KMSO 251323
OSOMSO
MONTANA AWOS SUMMARY
NATIONAL WEATHER SERVICE MISSOULA MT
722 AM MDT SAT OCT 25 2014

Montana AWOS Reports

LAUREL      |K6S8 251315Z AUTO 00000KT 40SM 02/M03 A3003 RMK AO1 T00171032
ROUNDUP     |KRPX 251315Z AUTO 00000KT 40SM 01/M02 A2997 RMK AO1 T00111016






000
SXUS55 KMSO 251313
OSOMSO
MONTANA AWOS SUMMARY
NATIONAL WEATHER SERVICE MISSOULA MT
713 AM MDT SAT OCT 25 2014

Montana AWOS Reports

PLAINS      |KS34 251255Z AUTO 00000KT 7SM 05/03 A2993 RMK AO1 T00500033
SCOBEY      |K9S2 251255Z AUTO 00000KT 40SM M02/M07 A3007 RMK AO1 T10211071
MALTA       |KM75 251255Z AUTO 00000KT 40SM 03/M01 A3003 RMK AO1 T00331005






000
SXUS55 KMSO 251303
OSOMSO
MONTANA AWOS SUMMARY
NATIONAL WEATHER SERVICE MISSOULA MT
703 AM MDT SAT OCT 25 2014

Montana AWOS Reports

LAUREL      |K6S8 251255Z AUTO 00000KT 40SM 01/M04 A3003 RMK AO1 T00111038
ROUNDUP     |KRPX 251255Z AUTO 00000KT 40SM 01/M02 A2997 RMK AO1 T00061016






000
SXUS55 KMSO 251243
OSOMSO
MONTANA AWOS SUMMARY
NATIONAL WEATHER SERVICE MISSOULA MT
642 AM MDT SAT OCT 25 2014

Montana AWOS Reports

LAUREL      |K6S8 251235Z AUTO 00000KT 40SM 00/M06 A3004 RMK AO1 T00001055
ROUNDUP     |KRPX 251235Z AUTO 00000KT 40SM 01/M02 A2998 RMK AO1 T00061021






000
SXUS55 KMSO 251223
OSOMSO
MONTANA AWOS SUMMARY
NATIONAL WEATHER SERVICE MISSOULA MT
623 AM MDT SAT OCT 25 2014

Montana AWOS Reports

LAUREL      |K6S8 251215Z AUTO 00000KT 25SM 00/M03 A3004 RMK AO1 T00001032
ROUNDUP     |KRPX 251215Z AUTO 00000KT 40SM 01/M01 A2998 RMK AO1 T00111010






000
SXUS55 KMSO 251213
OSOMSO
MONTANA AWOS SUMMARY
NATIONAL WEATHER SERVICE MISSOULA MT
612 AM MDT SAT OCT 25 2014

Montana AWOS Reports

MALTA       |KM75 251155Z AUTO 00000KT 40SM 04/00 A3005 RMK AO1 T00390000






000
SXUS55 KMSO 251203
OSOMSO
MONTANA AWOS SUMMARY
NATIONAL WEATHER SERVICE MISSOULA MT
603 AM MDT SAT OCT 25 2014

Montana AWOS Reports

LAUREL      |K6S8 251155Z AUTO 00000KT 25SM 01/M03 A3005 RMK AO1 T00061027
ROUNDUP     |KRPX 251155Z AUTO 00000KT 40SM 02/M01 A2998 RMK AO1 T00171010
PLAINS      |KS34 251155Z AUTO 00000KT 1/2SM 05/03 A2994 RMK AO1 T00500033
SCOBEY      |K9S2 251155Z AUTO 00000KT 40SM M02/M07 A3007 RMK AO1 T10161071






000
SXUS55 KMSO 251203
OSOMSO
MONTANA AWOS SUMMARY
NATIONAL WEATHER SERVICE MISSOULA MT
603 AM MDT SAT OCT 25 2014

Montana AWOS Reports

LAUREL      |K6S8 251155Z AUTO 00000KT 25SM 01/M03 A3005 RMK AO1 T00061027
ROUNDUP     |KRPX 251155Z AUTO 00000KT 40SM 02/M01 A2998 RMK AO1 T00171010
PLAINS      |KS34 251155Z AUTO 00000KT 1/2SM 05/03 A2994 RMK AO1 T00500033
SCOBEY      |K9S2 251155Z AUTO 00000KT 40SM M02/M07 A3007 RMK AO1 T10161071






000
SXUS55 KMSO 251143
OSOMSO
MONTANA AWOS SUMMARY
NATIONAL WEATHER SERVICE MISSOULA MT
542 AM MDT SAT OCT 25 2014

Montana AWOS Reports

LAUREL      |K6S8 251135Z AUTO 00000KT 40SM 01/M02 A3005 RMK AO1 T00111016
ROUNDUP     |KRPX 251135Z AUTO 00000KT 40SM 02/M01 A2998 RMK AO1 T00171010






000
SXUS55 KMSO 251143
OSOMSO
MONTANA AWOS SUMMARY
NATIONAL WEATHER SERVICE MISSOULA MT
542 AM MDT SAT OCT 25 2014

Montana AWOS Reports

LAUREL      |K6S8 251135Z AUTO 00000KT 40SM 01/M02 A3005 RMK AO1 T00111016
ROUNDUP     |KRPX 251135Z AUTO 00000KT 40SM 02/M01 A2998 RMK AO1 T00171010






000
SXUS55 KMSO 251123
OSOMSO
MONTANA AWOS SUMMARY
NATIONAL WEATHER SERVICE MISSOULA MT
523 AM MDT SAT OCT 25 2014

Montana AWOS Reports

LAUREL      |K6S8 251115Z AUTO 00000KT 40SM 01/M02 A3005 RMK AO1 T00111016
ROUNDUP     |KRPX 251115Z AUTO 00000KT 40SM 02/M01 A2998 RMK AO1 T00171010






000
SXUS55 KMSO 251123
OSOMSO
MONTANA AWOS SUMMARY
NATIONAL WEATHER SERVICE MISSOULA MT
523 AM MDT SAT OCT 25 2014

Montana AWOS Reports

LAUREL      |K6S8 251115Z AUTO 00000KT 40SM 01/M02 A3005 RMK AO1 T00111016
ROUNDUP     |KRPX 251115Z AUTO 00000KT 40SM 02/M01 A2998 RMK AO1 T00171010






000
SXUS55 KMSO 251103
OSOMSO
MONTANA AWOS SUMMARY
NATIONAL WEATHER SERVICE MISSOULA MT
503 AM MDT SAT OCT 25 2014

Montana AWOS Reports

LAUREL      |K6S8 251055Z AUTO 00000KT 40SM 02/M01 A3005 RMK AO1 T00171010
ROUNDUP     |KRPX 251055Z AUTO 00000KT 40SM 02/M01 A2999 RMK AO1 T00221005
PLAINS      |KS34 251055Z AUTO 00000KT 1/4SM 06/04 A2996 RMK AO1 T00560039
MALTA       |KM75 251055Z AUTO 00000KT 40SM 06/01 A3004 RMK AO1 T00560011






000
SXUS55 KMSO 251103
OSOMSO
MONTANA AWOS SUMMARY
NATIONAL WEATHER SERVICE MISSOULA MT
503 AM MDT SAT OCT 25 2014

Montana AWOS Reports

LAUREL      |K6S8 251055Z AUTO 00000KT 40SM 02/M01 A3005 RMK AO1 T00171010
ROUNDUP     |KRPX 251055Z AUTO 00000KT 40SM 02/M01 A2999 RMK AO1 T00221005
PLAINS      |KS34 251055Z AUTO 00000KT 1/4SM 06/04 A2996 RMK AO1 T00560039
MALTA       |KM75 251055Z AUTO 00000KT 40SM 06/01 A3004 RMK AO1 T00560011






000
SXUS55 KMSO 251044
OSOMSO
MONTANA AWOS SUMMARY
NATIONAL WEATHER SERVICE MISSOULA MT
443 AM MDT SAT OCT 25 2014

Montana AWOS Reports

LAUREL      |K6S8 251035Z AUTO 00000KT 40SM 02/M01 A3006 RMK AO1 T00171010
ROUNDUP     |KRPX 251035Z AUTO 00000KT 40SM 03/00 A2999 RMK AO1 T00280000






000
SXUS55 KMSO 251044
OSOMSO
MONTANA AWOS SUMMARY
NATIONAL WEATHER SERVICE MISSOULA MT
443 AM MDT SAT OCT 25 2014

Montana AWOS Reports

LAUREL      |K6S8 251035Z AUTO 00000KT 40SM 02/M01 A3006 RMK AO1 T00171010
ROUNDUP     |KRPX 251035Z AUTO 00000KT 40SM 03/00 A2999 RMK AO1 T00280000






000
SXUS55 KMSO 251023
OSOMSO
MONTANA AWOS SUMMARY
NATIONAL WEATHER SERVICE MISSOULA MT
423 AM MDT SAT OCT 25 2014

Montana AWOS Reports

LAUREL      |K6S8 251015Z AUTO 00000KT 40SM 01/M02 A3006 RMK AO1 T00111016
ROUNDUP     |KRPX 251015Z AUTO 00000KT 40SM 02/M01 A2999 RMK AO1 T00221005






000
SXUS55 KMSO 251003
OSOMSO
MONTANA AWOS SUMMARY
NATIONAL WEATHER SERVICE MISSOULA MT
403 AM MDT SAT OCT 25 2014

Montana AWOS Reports

LAUREL      |K6S8 250955Z AUTO 00000KT 40SM 02/M02 A3007 RMK AO1 T00171016
ROUNDUP     |KRPX 250955Z AUTO 00000KT 40SM 02/M01 A3000 RMK AO1 T00221005
MALTA       |KM75 250955Z AUTO 00000KT 40SM 06/01 A3006 RMK AO1 T00560011
PLAINS      |KS34 250955Z AUTO 00000KT 1/4SM 06/03 A2998 RMK AO1 T00560033






000
SXUS55 KMSO 250943
OSOMSO
MONTANA AWOS SUMMARY
NATIONAL WEATHER SERVICE MISSOULA MT
343 AM MDT SAT OCT 25 2014

Montana AWOS Reports

ROUNDUP     |KRPX 250935Z AUTO 00000KT 40SM 03/00 A3001 RMK AO1 T00280000






000
SXUS55 KMSO 250923
OSOMSO
MONTANA AWOS SUMMARY
NATIONAL WEATHER SERVICE MISSOULA MT
323 AM MDT SAT OCT 25 2014

Montana AWOS Reports

ROUNDUP     |KRPX 250915Z AUTO 00000KT 40SM 03/00 A3001 RMK AO1 T00330000






000
SXUS55 KMSO 250903
OSOMSO
MONTANA AWOS SUMMARY
NATIONAL WEATHER SERVICE MISSOULA MT
302 AM MDT SAT OCT 25 2014

Montana AWOS Reports

ROUNDUP     |KRPX 250855Z AUTO 00000KT 40SM 04/01 A3001 RMK AO1 T00390006
SCOBEY      |K9S2 250855Z AUTO 00000KT 40SM 02/M04 A3008 RMK AO1 T00221038
MALTA       |KM75 250855Z AUTO 00000KT 40SM 06/01 A3006 RMK AO1 T00560006
PLAINS      |KS34 250855Z AUTO 00000KT 1/4SM 06/03 A3001 RMK AO1 T00560033






000
SXUS55 KMSO 250853
OSOMSO
MONTANA AWOS SUMMARY
NATIONAL WEATHER SERVICE MISSOULA MT
252 AM MDT SAT OCT 25 2014

Montana AWOS Reports

ROUNDUP     |KRPX 250835Z AUTO 00000KT 40SM 04/01 A3001 RMK AO1 T00390006






000
SXUS55 KMSO 250843
OSOMSO
MONTANA AWOS SUMMARY
NATIONAL WEATHER SERVICE MISSOULA MT
243 AM MDT SAT OCT 25 2014

Montana AWOS Reports

LAUREL      |K6S8 250835Z AUTO 00000KT 40SM 03/M02 A3008 RMK AO1 T00281016






000
SXUS55 KMSO 250834
OSOMSO
MONTANA AWOS SUMMARY
NATIONAL WEATHER SERVICE MISSOULA MT
233 AM MDT SAT OCT 25 2014

Montana AWOS Reports

ROUNDUP     |KRPX 250815Z AUTO 00000KT 40SM 04/01 A3001 RMK AO1 T00440011






000
SXUS55 KMSO 250823
OSOMSO
MONTANA AWOS SUMMARY
NATIONAL WEATHER SERVICE MISSOULA MT
222 AM MDT SAT OCT 25 2014

Montana AWOS Reports

LAUREL      |K6S8 250815Z AUTO 00000KT 40SM 03/M01 A3007 RMK AO1 T00331010






000
SXUS55 KMSO 250804
OSOMSO
MONTANA AWOS SUMMARY
NATIONAL WEATHER SERVICE MISSOULA MT
203 AM MDT SAT OCT 25 2014

Montana AWOS Reports

LAUREL      |K6S8 250755Z AUTO 00000KT 40SM 05/M01 A3008 RMK AO1 T00501010
ROUNDUP     |KRPX 250755Z AUTO 00000KT 40SM 05/02 A3001 RMK AO1 T00500017
SCOBEY      |K9S2 250755Z AUTO 18004KT 40SM 00/M06 A3006 RMK AO1 T00001055
MALTA       |KM75 250755Z AUTO 00000KT 40SM 06/01 A3006 RMK AO1 T00610006
PLAINS      |KS34 250755Z AUTO 00000KT 2 1/2SM 06/04 A3002 RMK AO1 T00610039






000
SXUS55 KMSO 250743
OSOMSO
MONTANA AWOS SUMMARY
NATIONAL WEATHER SERVICE MISSOULA MT
143 AM MDT SAT OCT 25 2014

Montana AWOS Reports

LAUREL      |K6S8 250735Z AUTO 00000KT 40SM 06/M01 A3007 RMK AO1 T00611005
ROUNDUP     |KRPX 250735Z AUTO 00000KT 40SM 05/01 A3002 RMK AO1 T00500006






000
SXUS55 KMSO 250723
OSOMSO
MONTANA AWOS SUMMARY
NATIONAL WEATHER SERVICE MISSOULA MT
123 AM MDT SAT OCT 25 2014

Montana AWOS Reports

LAUREL      |K6S8 250715Z AUTO 00000KT 40SM 07/M01 A3007 RMK AO1 T00671005
ROUNDUP     |KRPX 250715Z AUTO 00000KT 40SM 06/01 A3002 RMK AO1 T00560006






000
SXUS55 KMSO 250703
OSOMSO
MONTANA AWOS SUMMARY
NATIONAL WEATHER SERVICE MISSOULA MT
103 AM MDT SAT OCT 25 2014

Montana AWOS Reports

LAUREL      |K6S8 250655Z AUTO 00000KT 40SM 07/M01 A3007 RMK AO1 T00721005
ROUNDUP     |KRPX 250655Z AUTO 00000KT 40SM 07/02 A3002 RMK AO1 T00670017
SCOBEY      |K9S2 250655Z AUTO 00000KT 40SM M01/M07 A3005 RMK AO1 T10051066
MALTA       |KM75 250655Z AUTO 00000KT 40SM 07/01 A3005 RMK AO1 T00670006
PLAINS      |KS34 250655Z AUTO 00000KT 1 3/4SM 07/04 A3003 RMK AO1 T00670044






000
SXUS55 KMSO 250643
OSOMSO
MONTANA AWOS SUMMARY
NATIONAL WEATHER SERVICE MISSOULA MT
1243 AM MDT SAT OCT 25 2014

Montana AWOS Reports

LAUREL      |K6S8 250635Z AUTO 00000KT 40SM 07/M01 A3008 RMK AO1 T00671005
ROUNDUP     |KRPX 250635Z AUTO 00000KT 40SM 07/01 A3002 RMK AO1 T00670011






000
SXUS55 KMSO 250623
OSOMSO
MONTANA AWOS SUMMARY
NATIONAL WEATHER SERVICE MISSOULA MT
1223 AM MDT SAT OCT 25 2014

Montana AWOS Reports

LAUREL      |K6S8 250615Z AUTO 00000KT 40SM 07/M01 A3007 RMK AO1 T00671010
LAUREL      |K6S8 250615Z AUTO 00000KT 40SM 07/M01 A3007 RMK AO1 T00671010
ROUNDUP     |KRPX 250615Z AUTO 00000KT 40SM 06/01 A3002 RMK AO1 T00560011






000
SXUS55 KMSO 250603
OSOMSO
MONTANA AWOS SUMMARY
NATIONAL WEATHER SERVICE MISSOULA MT
1203 AM MDT SAT OCT 25 2014

Montana AWOS Reports

ROUNDUP     |KRPX 250555Z AUTO 26004KT 40SM 07/01 A3002 RMK AO1 T00670011
SCOBEY      |K9S2 250555Z AUTO 00000KT 40SM M01/M07 A3005 RMK AO1 T10051066
MALTA       |KM75 250555Z AUTO 00000KT 40SM 06/00 A3005 RMK AO1 T00560000






000
SXUS55 KMSO 250553
OSOMSO
MONTANA AWOS SUMMARY
NATIONAL WEATHER SERVICE MISSOULA MT
1153 PM MDT FRI OCT 24 2014

Montana AWOS Reports

ROUNDUP     |KRPX 250535Z AUTO 00000KT 40SM 08/02 A3002 RMK AO1 T00830017






000
SXUS55 KMSO 250543
OSOMSO
MONTANA AWOS SUMMARY
NATIONAL WEATHER SERVICE MISSOULA MT
1142 PM MDT FRI OCT 24 2014

Montana AWOS Reports

LAUREL      |K6S8 250535Z AUTO 00000KT 40SM 07/M01 A3008 RMK AO1 T00721010






000
SXUS55 KMSO 250523
OSOMSO
MONTANA AWOS SUMMARY
NATIONAL WEATHER SERVICE MISSOULA MT
1123 PM MDT FRI OCT 24 2014

Montana AWOS Reports

LAUREL      |K6S8 250515Z AUTO 00000KT 40SM 08/M01 A3008 RMK AO1 T00781005
ROUNDUP     |KRPX 250515Z AUTO 00000KT 40SM 09/02 A3002 RMK AO1 T00940022






000
SXUS55 KMSO 250513
OSOMSO
MONTANA AWOS SUMMARY
NATIONAL WEATHER SERVICE MISSOULA MT
1113 PM MDT FRI OCT 24 2014

Montana AWOS Reports

SCOBEY      |K9S2 250455Z AUTO 00000KT 40SM 01/M06 A3003 RMK AO1 T00111060
MALTA       |KM75 250455Z AUTO 00000KT 40SM 06/00 A3004 RMK AO1 T00560000






000
SXUS55 KMSO 250503
OSOMSO
MONTANA AWOS SUMMARY
NATIONAL WEATHER SERVICE MISSOULA MT
1103 PM MDT FRI OCT 24 2014

Montana AWOS Reports

PLAINS      |KS34 250455Z AUTO 00000KT 15SM 09/06 A3006 RMK AO1 T00890061
LAUREL      |K6S8 250455Z AUTO 00000KT 40SM 08/M01 A3007 RMK AO1 T00831005
ROUNDUP     |KRPX 250455Z AUTO 00000KT 40SM 09/02 A3002 RMK AO1 T00890017






000
SXUS55 KMSO 250453
OSOMSO
MONTANA AWOS SUMMARY
NATIONAL WEATHER SERVICE MISSOULA MT
1052 PM MDT FRI OCT 24 2014

Montana AWOS Reports

ROUNDUP     |KRPX 250435Z AUTO 00000KT 40SM 08/02 A3002 RMK AO1 T00830022






000
SXUS55 KMSO 250443
OSOMSO
MONTANA AWOS SUMMARY
NATIONAL WEATHER SERVICE MISSOULA MT
1043 PM MDT FRI OCT 24 2014

Montana AWOS Reports

LAUREL      |K6S8 250435Z AUTO 00000KT 40SM 08/M01 A3007 RMK AO1 T00831005






000
SXUS55 KMSO 250423
OSOMSO
MONTANA AWOS SUMMARY
NATIONAL WEATHER SERVICE MISSOULA MT
1023 PM MDT FRI OCT 24 2014

Montana AWOS Reports

LAUREL      |K6S8 250415Z AUTO 00000KT 40SM 09/M01 A3008 RMK AO1 T00891005
ROUNDUP     |KRPX 250415Z AUTO 00000KT 40SM 08/02 A3001 RMK AO1 T00830022






000
SXUS55 KMSO 250413
OSOMSO
MONTANA AWOS SUMMARY
NATIONAL WEATHER SERVICE MISSOULA MT
1013 PM MDT FRI OCT 24 2014

Montana AWOS Reports

MALTA       |KM75 250355Z AUTO 00000KT 40SM 07/00 A3003 RMK AO1 T00670000






000
SXUS55 KMSO 250403
OSOMSO
MONTANA AWOS SUMMARY
NATIONAL WEATHER SERVICE MISSOULA MT
1002 PM MDT FRI OCT 24 2014

Montana AWOS Reports

LAUREL      |K6S8 250355Z AUTO 00000KT 40SM 09/M01 A3008 RMK AO1 T00891005
ROUNDUP     |KRPX 250355Z AUTO 00000KT 40SM 08/02 A3001 RMK AO1 T00780022
SCOBEY      |K9S2 250355Z AUTO 00000KT 40SM 03/M07 A3003 RMK AO1 T00281066
PLAINS      |KS34 250355Z AUTO 00000KT 7SM 09/06 A3006 RMK AO1 T00890056






000
SXUS55 KMSO 250403
OSOMSO
MONTANA AWOS SUMMARY
NATIONAL WEATHER SERVICE MISSOULA MT
1002 PM MDT FRI OCT 24 2014

Montana AWOS Reports

LAUREL      |K6S8 250355Z AUTO 00000KT 40SM 09/M01 A3008 RMK AO1 T00891005
ROUNDUP     |KRPX 250355Z AUTO 00000KT 40SM 08/02 A3001 RMK AO1 T00780022
SCOBEY      |K9S2 250355Z AUTO 00000KT 40SM 03/M07 A3003 RMK AO1 T00281066
PLAINS      |KS34 250355Z AUTO 00000KT 7SM 09/06 A3006 RMK AO1 T00890056






000
SXUS55 KMSO 250343
OSOMSO
MONTANA AWOS SUMMARY
NATIONAL WEATHER SERVICE MISSOULA MT
943 PM MDT FRI OCT 24 2014

Montana AWOS Reports

LAUREL      |K6S8 250335Z AUTO 00000KT 40SM 09/00 A3008 RMK AO1 T00890000
ROUNDUP     |KRPX 250335Z AUTO 00000KT 40SM 09/02 A3001 RMK AO1 T00940022






000
SXUS55 KMSO 250343
OSOMSO
MONTANA AWOS SUMMARY
NATIONAL WEATHER SERVICE MISSOULA MT
943 PM MDT FRI OCT 24 2014

Montana AWOS Reports

LAUREL      |K6S8 250335Z AUTO 00000KT 40SM 09/00 A3008 RMK AO1 T00890000
ROUNDUP     |KRPX 250335Z AUTO 00000KT 40SM 09/02 A3001 RMK AO1 T00940022






000
SXUS55 KMSO 250324
OSOMSO
MONTANA AWOS SUMMARY
NATIONAL WEATHER SERVICE MISSOULA MT
923 PM MDT FRI OCT 24 2014

Montana AWOS Reports

LAUREL      |K6S8 250315Z AUTO 00000KT 40SM 09/00 A3007 RMK AO1 T00940000
ROUNDUP     |KRPX 250315Z AUTO 00000KT 40SM 09/02 A3001 RMK AO1 T00940022






000
SXUS55 KMSO 250314
OSOMSO
MONTANA AWOS SUMMARY
NATIONAL WEATHER SERVICE MISSOULA MT
913 PM MDT FRI OCT 24 2014

Montana AWOS Reports

PLAINS      |KS34 250255Z AUTO 00000KT 10SM 09/06 A3007 RMK AO1 T00940056
MALTA       |KM75 250255Z AUTO 00000KT 40SM 04/M02 A3003 RMK AO1 T00391016






000
SXUS55 KMSO 250303
OSOMSO
MONTANA AWOS SUMMARY
NATIONAL WEATHER SERVICE MISSOULA MT
903 PM MDT FRI OCT 24 2014

Montana AWOS Reports

LAUREL      |K6S8 250255Z AUTO 00000KT 40SM 11/01 A3007 RMK AO1 T01060006
ROUNDUP     |KRPX 250255Z AUTO 00000KT 40SM 10/03 A3001 RMK AO1 T01000033






000
SXUS55 KMSO 250253
OSOMSO
MONTANA AWOS SUMMARY
NATIONAL WEATHER SERVICE MISSOULA MT
852 PM MDT FRI OCT 24 2014

Montana AWOS Reports

ROUNDUP     |KRPX 250235Z AUTO 00000KT 40SM 11/03 A3000 RMK AO1 T01110033






000
SXUS55 KMSO 250243
OSOMSO
MONTANA AWOS SUMMARY
NATIONAL WEATHER SERVICE MISSOULA MT
843 PM MDT FRI OCT 24 2014

Montana AWOS Reports

LAUREL      |K6S8 250235Z AUTO 00000KT 40SM 11/01 A3007 RMK AO1 T01060006






000
SXUS55 KMSO 250223
OSOMSO
MONTANA AWOS SUMMARY
NATIONAL WEATHER SERVICE MISSOULA MT
823 PM MDT FRI OCT 24 2014

Montana AWOS Reports

LAUREL      |K6S8 250215Z AUTO 00000KT 40SM 11/01 A3007 RMK AO1 T01060006
ROUNDUP     |KRPX 250215Z AUTO 26004KT 40SM 11/02 A3000 RMK AO1 T01060022






000
SXUS55 KMSO 250213
OSOMSO
MONTANA AWOS SUMMARY
NATIONAL WEATHER SERVICE MISSOULA MT
813 PM MDT FRI OCT 24 2014

Montana AWOS Reports

PLAINS      |KS34 250155Z AUTO 00000KT 25SM 10/06 A3007 RMK AO1 T01000056
SCOBEY      |K9S2 250155Z AUTO 25004KT 40SM 05/M06 A3001 RMK AO1 T00501060
MALTA       |KM75 250155Z AUTO 00000KT 40SM 07/M01 A3002 RMK AO1 T00721010






000
SXUS55 KMSO 250203
OSOMSO
MONTANA AWOS SUMMARY
NATIONAL WEATHER SERVICE MISSOULA MT
802 PM MDT FRI OCT 24 2014

Montana AWOS Reports

LAUREL      |K6S8 250155Z AUTO 00000KT 40SM 11/01 A3007 RMK AO1 T01110006






000
SXUS55 KMSO 250143
OSOMSO
MONTANA AWOS SUMMARY
NATIONAL WEATHER SERVICE MISSOULA MT
743 PM MDT FRI OCT 24 2014

Montana AWOS Reports

LAUREL      |K6S8 250135Z AUTO 00000KT 40SM 12/01 A3007 RMK AO1 T01170006
ROUNDUP     |KRPX 250135Z AUTO 00000KT 40SM 11/02 A3000 RMK AO1 T01060022






000
SXUS55 KMSO 250134
OSOMSO
MONTANA AWOS SUMMARY
NATIONAL WEATHER SERVICE MISSOULA MT
733 PM MDT FRI OCT 24 2014

Montana AWOS Reports

PLAINS      |KS34 250055Z AUTO 00000KT 25SM 11/06 A3007 RMK AO1 T01110056






000
SXUS55 KMSO 250123
OSOMSO
MONTANA AWOS SUMMARY
NATIONAL WEATHER SERVICE MISSOULA MT
723 PM MDT FRI OCT 24 2014

Montana AWOS Reports

LAUREL      |K6S8 250115Z AUTO 00000KT 40SM 12/01 A3007 RMK AO1 T01170006
ROUNDUP     |KRPX 250115Z AUTO 00000KT 40SM 11/02 A3000 RMK AO1 T01060017






000
SXUS55 KMSO 250114
OSOMSO
MONTANA AWOS SUMMARY
NATIONAL WEATHER SERVICE MISSOULA MT
713 PM MDT FRI OCT 24 2014

Montana AWOS Reports

SCOBEY      |K9S2 250055Z AUTO 25006KT 40SM 08/M06 A2999 RMK AO1 T00831060
MALTA       |KM75 250055Z AUTO 00000KT 40SM 08/M01 A3000 RMK AO1 T00831010






000
SXUS55 KMSO 250103
OSOMSO
MONTANA AWOS SUMMARY
NATIONAL WEATHER SERVICE MISSOULA MT
703 PM MDT FRI OCT 24 2014

Montana AWOS Reports

LAUREL      |K6S8 250055Z AUTO 00000KT 40SM 11/01 A3007 RMK AO1 T01110006






000
SXUS55 KMSO 250044
OSOMSO
MONTANA AWOS SUMMARY
NATIONAL WEATHER SERVICE MISSOULA MT
643 PM MDT FRI OCT 24 2014

Montana AWOS Reports

LAUREL      |K6S8 250035Z AUTO 00000KT 40SM 12/01 A3006 RMK AO1 T01170006
ROUNDUP     |KRPX 250035Z AUTO 00000KT 40SM 12/02 A2998 RMK AO1 T01170022






000
SXUS55 KMSO 250034
OSOMSO
MONTANA AWOS SUMMARY
NATIONAL WEATHER SERVICE MISSOULA MT
633 PM MDT FRI OCT 24 2014

Montana AWOS Reports

SCOBEY      |K9S2 242355Z AUTO 25007KT 40SM 11/M05 A2998 RMK AO1 T01061049






000
SXUS55 KMSO 250024
OSOMSO
MONTANA AWOS SUMMARY
NATIONAL WEATHER SERVICE MISSOULA MT
623 PM MDT FRI OCT 24 2014

Montana AWOS Reports

LAUREL      |K6S8 250015Z AUTO 00000KT 40SM 13/01 A3007 RMK AO1 T01330011
ROUNDUP     |KRPX 250015Z AUTO 00000KT 40SM 12/02 A2999 RMK AO1 T01220022






000
SXUS55 KMSO 250004
OSOMSO
MONTANA AWOS SUMMARY
NATIONAL WEATHER SERVICE MISSOULA MT
603 PM MDT FRI OCT 24 2014

Montana AWOS Reports

LAUREL      |K6S8 242355Z AUTO 00000KT 40SM 14/01 A3006 RMK AO1 T01390011
ROUNDUP     |KRPX 242355Z AUTO 00000KT 40SM 13/03 A2999 RMK AO1 T01280028






000
SXUS55 KMSO 242343
OSOMSO
MONTANA AWOS SUMMARY
NATIONAL WEATHER SERVICE MISSOULA MT
543 PM MDT FRI OCT 24 2014

Montana AWOS Reports

LAUREL      |K6S8 242335Z AUTO 05004KT 40SM 14/01 A3006 RMK AO1 T01440011
ROUNDUP     |KRPX 242335Z AUTO 00000KT 40SM 13/03 A2999 RMK AO1 T01330028






000
SXUS55 KMSO 242323
OSOMSO
MONTANA AWOS SUMMARY
NATIONAL WEATHER SERVICE MISSOULA MT
523 PM MDT FRI OCT 24 2014

Montana AWOS Reports

LAUREL      |K6S8 242315Z AUTO 00000KT 40SM 14/01 A3006 RMK AO1 T01440011
ROUNDUP     |KRPX 242315Z AUTO 00000KT 40SM 14/04 A2999 RMK AO1 T01390039






000
SXUS55 KMSO 242303
OSOMSO
MONTANA AWOS SUMMARY
NATIONAL WEATHER SERVICE MISSOULA MT
503 PM MDT FRI OCT 24 2014

Montana AWOS Reports

ROUNDUP     |KRPX 242255Z AUTO 00000KT 40SM 14/04 A2998 RMK AO1 T01440039
SCOBEY      |K9S2 242255Z AUTO 25016KT 40SM 14/M05 A2996 RMK AO1 T01391049
MALTA       |KM75 242255Z AUTO 27014G19KT 40SM 16/M02 A2998 RMK AO1 T01561016
PLAINS      |KS34 242255Z AUTO 00000KT 25SM 12/06 A3008 RMK AO1 T01220056






000
SXUS55 KMSO 242244
OSOMSO
MONTANA AWOS SUMMARY
NATIONAL WEATHER SERVICE MISSOULA MT
443 PM MDT FRI OCT 24 2014

Montana AWOS Reports

LAUREL      |K6S8 242235Z AUTO 00000KT 40SM 15/01 A3005 RMK AO1 T01500011
ROUNDUP     |KRPX 242235Z AUTO 00000KT 40SM 14/03 A2998 RMK AO1 T01440033






000
SXUS55 KMSO 242223
OSOMSO
MONTANA AWOS SUMMARY
NATIONAL WEATHER SERVICE MISSOULA MT
423 PM MDT FRI OCT 24 2014

Montana AWOS Reports

LAUREL      |K6S8 242215Z AUTO 00000KT 40SM 14/02 A3005 RMK AO1 T01440017
ROUNDUP     |KRPX 242215Z AUTO 00000KT 40SM 14/03 A2998 RMK AO1 T01440028






000
SXUS55 KMSO 242213
OSOMSO
MONTANA AWOS SUMMARY
NATIONAL WEATHER SERVICE MISSOULA MT
413 PM MDT FRI OCT 24 2014

Montana AWOS Reports

SCOBEY      |K9S2 242155Z AUTO 27018G23KT 40SM 15/M04 A2994 RMK AO1 T01501038
MALTA       |KM75 242155Z AUTO 27014G21KT 40SM 16/M01 A2997 RMK AO1 T01611010






000
SXUS55 KMSO 242203
OSOMSO
MONTANA AWOS SUMMARY
NATIONAL WEATHER SERVICE MISSOULA MT
403 PM MDT FRI OCT 24 2014

Montana AWOS Reports

LAUREL      |K6S8 242155Z AUTO 00000KT 40SM 14/02 A3005 RMK AO1 T01390017
ROUNDUP     |KRPX 242155Z AUTO 00000KT 40SM 14/03 A2998 RMK AO1 T01440028






000
SXUS55 KMSO 242143
OSOMSO
MONTANA AWOS SUMMARY
NATIONAL WEATHER SERVICE MISSOULA MT
343 PM MDT FRI OCT 24 2014

Montana AWOS Reports

LAUREL      |K6S8 242135Z AUTO 00000KT 40SM 14/02 A3005 RMK AO1 T01390017
ROUNDUP     |KRPX 242135Z AUTO 12004KT 40SM 14/02 A2997 RMK AO1 T01440022






000
SXUS55 KMSO 242123
OSOMSO
MONTANA AWOS SUMMARY
NATIONAL WEATHER SERVICE MISSOULA MT
323 PM MDT FRI OCT 24 2014

Montana AWOS Reports

LAUREL      |K6S8 242115Z AUTO 01004KT 40SM 14/03 A3004 RMK AO1 T01440028
ROUNDUP     |KRPX 242115Z AUTO 00000KT 40SM 14/02 A2997 RMK AO1 T01390017






000
SXUS55 KMSO 242113
OSOMSO
MONTANA AWOS SUMMARY
NATIONAL WEATHER SERVICE MISSOULA MT
313 PM MDT FRI OCT 24 2014

Montana AWOS Reports

LAUREL      |K6S8 242055Z AUTO 00000KT 40SM 14/03 A3003 RMK AO1 T01440028
ROUNDUP     |KRPX 242055Z AUTO 00000KT 40SM 14/02 A2997 RMK AO1 T01440022
SCOBEY      |K9S2 242055Z AUTO 27023G27KT 40SM 14/M04 A2993 RMK AO1 T01441043
MALTA       |KM75 242055Z AUTO 26016G22KT 40SM 16/M01 A2996 RMK AO1 T01561010






000
SXUS55 KMSO 242103
OSOMSO
MONTANA AWOS SUMMARY
NATIONAL WEATHER SERVICE MISSOULA MT
303 PM MDT FRI OCT 24 2014

Montana AWOS Reports

PLAINS      |KS34 242055Z AUTO 00000KT 40SM 13/04 A3009 RMK AO1 T01330039






000
SXUS55 KMSO 242044
OSOMSO
MONTANA AWOS SUMMARY
NATIONAL WEATHER SERVICE MISSOULA MT
243 PM MDT FRI OCT 24 2014

Montana AWOS Reports

LAUREL      |K6S8 242035Z AUTO 01005KT 40SM 14/03 A3003 RMK AO1 T01440028
ROUNDUP     |KRPX 242035Z AUTO 00000KT 40SM 14/02 A2997 RMK AO1 T01390017






000
SXUS55 KMSO 242023
OSOMSO
MONTANA AWOS SUMMARY
NATIONAL WEATHER SERVICE MISSOULA MT
223 PM MDT FRI OCT 24 2014

Montana AWOS Reports

LAUREL      |K6S8 242015Z AUTO 00000KT 40SM 14/03 A3004 RMK AO1 T01390028
ROUNDUP     |KRPX 242015Z AUTO 00000KT 40SM 14/02 A2997 RMK AO1 T01390017
MALTA       |KM75 241955Z AUTO 25020G28KT 40SM 16/M02 A2995 RMK AO1 T01561021






000
SXUS55 KMSO 242014
OSOMSO
MONTANA AWOS SUMMARY
NATIONAL WEATHER SERVICE MISSOULA MT
213 PM MDT FRI OCT 24 2014

Montana AWOS Reports

PLAINS      |KS34 241955Z AUTO 00000KT 40SM 12/05 A3009 RMK AO1 T01170050
SCOBEY      |K9S2 241955Z AUTO 27019G28KT 40SM 14/M03 A2991 RMK AO1 T01441032






000
SXUS55 KMSO 242004
OSOMSO
MONTANA AWOS SUMMARY
NATIONAL WEATHER SERVICE MISSOULA MT
203 PM MDT FRI OCT 24 2014

Montana AWOS Reports

LAUREL      |K6S8 241955Z AUTO 36005KT 40SM 14/03 A3004 RMK AO1 T01390028






000
SXUS55 KMSO 241954
OSOMSO
MONTANA AWOS SUMMARY
NATIONAL WEATHER SERVICE MISSOULA MT
153 PM MDT FRI OCT 24 2014

Montana AWOS Reports

LAUREL      |K6S8 241935Z AUTO 01006KT 40SM 14/03 A3004 RMK AO1 T01390028
ROUNDUP     |KRPX 241935Z AUTO 00000KT 40SM 14/02 A2997 RMK AO1 T01390017






000
SXUS55 KMSO 241954
OSOMSO
MONTANA AWOS SUMMARY
NATIONAL WEATHER SERVICE MISSOULA MT
153 PM MDT FRI OCT 24 2014

Montana AWOS Reports

LAUREL      |K6S8 241935Z AUTO 01006KT 40SM 14/03 A3004 RMK AO1 T01390028
ROUNDUP     |KRPX 241935Z AUTO 00000KT 40SM 14/02 A2997 RMK AO1 T01390017






000
SXUS55 KMSO 241923
OSOMSO
MONTANA AWOS SUMMARY
NATIONAL WEATHER SERVICE MISSOULA MT
123 PM MDT FRI OCT 24 2014

Montana AWOS Reports

LAUREL      |K6S8 241915Z AUTO 02004KT 40SM 14/03 A3004 RMK AO1 T01390028
ROUNDUP     |KRPX 241915Z AUTO 00000KT 40SM 14/01 A2997 RMK AO1 T01390011






000
SXUS55 KMSO 241914
OSOMSO
MONTANA AWOS SUMMARY
NATIONAL WEATHER SERVICE MISSOULA MT
113 PM MDT FRI OCT 24 2014

Montana AWOS Reports

SCOBEY      |K9S2 241855Z AUTO 27021G27KT 40SM 14/M02 A2992 RMK AO1 T01391021
MALTA       |KM75 241855Z AUTO 25017G23KT 40SM 15/M01 A2995 RMK AO1 T01501010






000
SXUS55 KMSO 241903
OSOMSO
MONTANA AWOS SUMMARY
NATIONAL WEATHER SERVICE MISSOULA MT
103 PM MDT FRI OCT 24 2014

Montana AWOS Reports

LAUREL      |K6S8 241855Z AUTO 02005KT 40SM 14/02 A3004 RMK AO1 T01390022
ROUNDUP     |KRPX 241855Z AUTO 00000KT 40SM 14/01 A2997 RMK AO1 T01390011
PLAINS      |KS34 241855Z AUTO 00000KT 40SM 12/04 A3010 RMK AO1 T01170044






000
SXUS55 KMSO 241843
OSOMSO
MONTANA AWOS SUMMARY
NATIONAL WEATHER SERVICE MISSOULA MT
1243 PM MDT FRI OCT 24 2014

Montana AWOS Reports

LAUREL      |K6S8 241835Z AUTO 00000KT 40SM 13/02 A3005 RMK AO1 T01330022
ROUNDUP     |KRPX 241835Z AUTO 00000KT 40SM 14/01 A2997 RMK AO1 T01390011






000
SXUS55 KMSO 241824
OSOMSO
MONTANA AWOS SUMMARY
NATIONAL WEATHER SERVICE MISSOULA MT
1223 PM MDT FRI OCT 24 2014

Montana AWOS Reports

LAUREL      |K6S8 241815Z AUTO 00000KT 40SM 14/02 A3005 RMK AO1 T01390022
ROUNDUP     |KRPX 241815Z AUTO 00000KT 40SM 14/02 A2998 RMK AO1 T01390017






000
SXUS55 KMSO 241813
OSOMSO
MONTANA AWOS SUMMARY
NATIONAL WEATHER SERVICE MISSOULA MT
1212 PM MDT FRI OCT 24 2014

Montana AWOS Reports

MALTA       |KM75 241755Z AUTO 25018G27KT 40SM 14/M01 A2995 RMK AO1 T01441010






000
SXUS55 KMSO 241803
OSOMSO
MONTANA AWOS SUMMARY
NATIONAL WEATHER SERVICE MISSOULA MT
1203 PM MDT FRI OCT 24 2014

Montana AWOS Reports

LAUREL      |K6S8 241755Z AUTO 00000KT 40SM 14/02 A3005 RMK AO1 T01390022
ROUNDUP     |KRPX 241755Z AUTO 05006KT 40SM 14/01 A2998 RMK AO1 T01390006
PLAINS      |KS34 241755Z AUTO 00000KT 25SM 09/04 A3011 RMK AO1 T00940039
SCOBEY      |K9S2 241755Z AUTO 27019G30KT 40SM 13/M03 A2992 RMK AO1 T01331027






000
SXUS55 KMSO 241753
OSOMSO
MONTANA AWOS SUMMARY
NATIONAL WEATHER SERVICE MISSOULA MT
1152 AM MDT FRI OCT 24 2014

Montana AWOS Reports

ROUNDUP     |KRPX 241735Z AUTO 34005KT 40SM 14/02 A2997 RMK AO1 T01390017






000
SXUS55 KMSO 241743
OSOMSO
MONTANA AWOS SUMMARY
NATIONAL WEATHER SERVICE MISSOULA MT
1143 AM MDT FRI OCT 24 2014

Montana AWOS Reports

LAUREL      |K6S8 241735Z AUTO 00000KT 40SM 13/02 A3006 RMK AO1 T01330017






000
SXUS55 KMSO 241733
OSOMSO
MONTANA AWOS SUMMARY
NATIONAL WEATHER SERVICE MISSOULA MT
1133 AM MDT FRI OCT 24 2014

Montana AWOS Reports

ROUNDUP     |KRPX 241715Z AUTO 34008KT 40SM 13/02 A2997 RMK AO1 T01330022






000
SXUS55 KMSO 241723
OSOMSO
MONTANA AWOS SUMMARY
NATIONAL WEATHER SERVICE MISSOULA MT
1123 AM MDT FRI OCT 24 2014

Montana AWOS Reports

LAUREL      |K6S8 241715Z AUTO 00000KT 40SM 13/02 A3005 RMK AO1 T01330022






000
SXUS55 KMSO 241713
OSOMSO
MONTANA AWOS SUMMARY
NATIONAL WEATHER SERVICE MISSOULA MT
1113 AM MDT FRI OCT 24 2014

Montana AWOS Reports

PLAINS      |KS34 241655Z AUTO 00000KT 40SM 08/04 A3011 RMK AO1 T00830039
SCOBEY      |K9S2 241655Z AUTO 26024G32KT 40SM 13/M02 A2990 RMK AO1 T01331021
MALTA       |KM75 241655Z AUTO 25016G23KT 40SM 13/M01 A2995 RMK AO1 T01281005






000
SXUS55 KMSO 241703
OSOMSO
MONTANA AWOS SUMMARY
NATIONAL WEATHER SERVICE MISSOULA MT
1103 AM MDT FRI OCT 24 2014

Montana AWOS Reports

LAUREL      |K6S8 241655Z AUTO 00000KT 25SM 13/02 A3004 RMK AO1 T01280017
ROUNDUP     |KRPX 241655Z AUTO 00000KT 40SM 13/03 A2997 RMK AO1 T01280028






000
SXUS55 KMSO 241643
OSOMSO
MONTANA AWOS SUMMARY
NATIONAL WEATHER SERVICE MISSOULA MT
1043 AM MDT FRI OCT 24 2014

Montana AWOS Reports

LAUREL      |K6S8 241635Z AUTO 00000KT 40SM 12/01 A3004 RMK AO1 T01220011
ROUNDUP     |KRPX 241635Z AUTO 00000KT 40SM 11/03 A2997 RMK AO1 T01110028






000
SXUS55 KMSO 241623
OSOMSO
MONTANA AWOS SUMMARY
NATIONAL WEATHER SERVICE MISSOULA MT
1023 AM MDT FRI OCT 24 2014

Montana AWOS Reports

LAUREL      |K6S8 241615Z AUTO 00000KT 40SM 12/02 A3005 RMK AO1 T01220017
ROUNDUP     |KRPX 241615Z AUTO 00000KT 40SM 11/03 A2996 RMK AO1 T01060028






000
SXUS55 KMSO 241613
OSOMSO
MONTANA AWOS SUMMARY
NATIONAL WEATHER SERVICE MISSOULA MT
1013 AM MDT FRI OCT 24 2014

Montana AWOS Reports

SCOBEY      |K9S2 241555Z AUTO 25020G31KT 40SM 13/M01 A2987 RMK AO1 T01281010






000
SXUS55 KMSO 241603
OSOMSO
MONTANA AWOS SUMMARY
NATIONAL WEATHER SERVICE MISSOULA MT
1003 AM MDT FRI OCT 24 2014

Montana AWOS Reports

LAUREL      |K6S8 241555Z AUTO 00000KT 40SM 12/01 A3003 RMK AO1 T01220011
ROUNDUP     |KRPX 241555Z AUTO 00000KT 40SM 10/03 A2997 RMK AO1 T01000028






000
SXUS55 KMSO 241544
OSOMSO
MONTANA AWOS SUMMARY
NATIONAL WEATHER SERVICE MISSOULA MT
943 AM MDT FRI OCT 24 2014

Montana AWOS Reports

LAUREL      |K6S8 241535Z AUTO 00000KT 40SM 12/02 A3003 RMK AO1 T01220017
ROUNDUP     |KRPX 241535Z AUTO 00000KT 40SM 09/03 A2996 RMK AO1 T00940033






000
SXUS55 KMSO 241524
OSOMSO
MONTANA AWOS SUMMARY
NATIONAL WEATHER SERVICE MISSOULA MT
923 AM MDT FRI OCT 24 2014

Montana AWOS Reports

LAUREL      |K6S8 241515Z AUTO 00000KT 40SM 12/01 A3002 RMK AO1 T01170011
ROUNDUP     |KRPX 241515Z AUTO 00000KT 40SM 08/02 A2995 RMK AO1 T00780017






000
SXUS55 KMSO 241513
OSOMSO
MONTANA AWOS SUMMARY
NATIONAL WEATHER SERVICE MISSOULA MT
913 AM MDT FRI OCT 24 2014

Montana AWOS Reports

PLAINS      |KS34 241455Z AUTO 00000KT 25SM 06/02 A3009 RMK AO1 T00610022






000
SXUS55 KMSO 241503
OSOMSO
MONTANA AWOS SUMMARY
NATIONAL WEATHER SERVICE MISSOULA MT
902 AM MDT FRI OCT 24 2014

Montana AWOS Reports

LAUREL      |K6S8 241455Z AUTO 00000KT 25SM 11/01 A3001 RMK AO1 T01110011
ROUNDUP     |KRPX 241455Z AUTO 00000KT 40SM 08/02 A2994 RMK AO1 T00780017
SCOBEY      |K9S2 241455Z AUTO 25017G23KT 40SM 10/01 A2986 RMK AO1 T01000006






000
SXUS55 KMSO 241443
OSOMSO
MONTANA AWOS SUMMARY
NATIONAL WEATHER SERVICE MISSOULA MT
843 AM MDT FRI OCT 24 2014

Montana AWOS Reports

LAUREL      |K6S8 241435Z AUTO 00000KT 40SM 11/02 A3000 RMK AO1 T01110017
ROUNDUP     |KRPX 241435Z AUTO 00000KT 40SM 08/02 A2994 RMK AO1 T00780017






000
SXUS55 KMSO 241443
OSOMSO
MONTANA AWOS SUMMARY
NATIONAL WEATHER SERVICE MISSOULA MT
843 AM MDT FRI OCT 24 2014

Montana AWOS Reports

LAUREL      |K6S8 241435Z AUTO 00000KT 40SM 11/02 A3000 RMK AO1 T01110017
ROUNDUP     |KRPX 241435Z AUTO 00000KT 40SM 08/02 A2994 RMK AO1 T00780017






000
SXUS55 KMSO 241423
OSOMSO
MONTANA AWOS SUMMARY
NATIONAL WEATHER SERVICE MISSOULA MT
823 AM MDT FRI OCT 24 2014

Montana AWOS Reports

LAUREL      |K6S8 241415Z AUTO 00000KT 40SM 09/01 A3000 RMK AO1 T00940011
ROUNDUP     |KRPX 241415Z AUTO 00000KT 40SM 07/01 A2992 RMK AO1 T00670006






000
SXUS55 KMSO 241423
OSOMSO
MONTANA AWOS SUMMARY
NATIONAL WEATHER SERVICE MISSOULA MT
823 AM MDT FRI OCT 24 2014

Montana AWOS Reports

LAUREL      |K6S8 241415Z AUTO 00000KT 40SM 09/01 A3000 RMK AO1 T00940011
ROUNDUP     |KRPX 241415Z AUTO 00000KT 40SM 07/01 A2992 RMK AO1 T00670006






000
SXUS55 KMSO 241403
OSOMSO
MONTANA AWOS SUMMARY
NATIONAL WEATHER SERVICE MISSOULA MT
803 AM MDT FRI OCT 24 2014

Montana AWOS Reports

LAUREL      |K6S8 241355Z AUTO 00000KT 40SM 08/00 A2999 RMK AO1 T00830000
ROUNDUP     |KRPX 241355Z AUTO 00000KT 40SM 07/01 A2991 RMK AO1 T00670011
SCOBEY      |K9S2 241355Z AUTO 24013G19KT 40SM 09/00 A2985 RMK AO1 T00940000
MALTA       |KM75 241355Z AUTO 25011G16KT 40SM 11/01 A2989 RMK AO1 T01060006






000
SXUS55 KMSO 241403
OSOMSO
MONTANA AWOS SUMMARY
NATIONAL WEATHER SERVICE MISSOULA MT
803 AM MDT FRI OCT 24 2014

Montana AWOS Reports

LAUREL      |K6S8 241355Z AUTO 00000KT 40SM 08/00 A2999 RMK AO1 T00830000
ROUNDUP     |KRPX 241355Z AUTO 00000KT 40SM 07/01 A2991 RMK AO1 T00670011
SCOBEY      |K9S2 241355Z AUTO 24013G19KT 40SM 09/00 A2985 RMK AO1 T00940000
MALTA       |KM75 241355Z AUTO 25011G16KT 40SM 11/01 A2989 RMK AO1 T01060006






000
SXUS55 KMSO 241344
OSOMSO
MONTANA AWOS SUMMARY
NATIONAL WEATHER SERVICE MISSOULA MT
743 AM MDT FRI OCT 24 2014

Montana AWOS Reports

LAUREL      |K6S8 241335Z AUTO 00000KT 40SM 08/M01 A2998 RMK AO1 T00781005
ROUNDUP     |KRPX 241335Z AUTO 00000KT 40SM 07/01 A2991 RMK AO1 T00670006
MALTA       |KM75 241255Z AUTO 00000KT 40SM 08/02 A2987 RMK AO1 T00830022






000
SXUS55 KMSO 241324
OSOMSO
MONTANA AWOS SUMMARY
NATIONAL WEATHER SERVICE MISSOULA MT
723 AM MDT FRI OCT 24 2014

Montana AWOS Reports

LAUREL      |K6S8 241315Z AUTO 00000KT 40SM 08/M01 A2998 RMK AO1 T00781005
ROUNDUP     |KRPX 241315Z AUTO 00000KT 40SM 07/01 A2990 RMK AO1 T00720006






000
SXUS55 KMSO 241313
OSOMSO
MONTANA AWOS SUMMARY
NATIONAL WEATHER SERVICE MISSOULA MT
712 AM MDT FRI OCT 24 2014

Montana AWOS Reports

ROUNDUP     |KRPX 241255Z AUTO 20005KT 40SM 07/01 A2989 RMK AO1 T00720006






000
SXUS55 KMSO 241304
OSOMSO
MONTANA AWOS SUMMARY
NATIONAL WEATHER SERVICE MISSOULA MT
703 AM MDT FRI OCT 24 2014

Montana AWOS Reports

LAUREL      |K6S8 241255Z AUTO 00000KT 40SM 08/M01 A2997 RMK AO1 T00831005
SCOBEY      |K9S2 241255Z AUTO 24013G18KT 40SM 10/02 A2983 RMK AO1 T01000017
PLAINS      |KS34 241255Z AUTO 12005KT 40SM 08/03 A3006 RMK AO1 T00780028






000
SXUS55 KMSO 241253
OSOMSO
MONTANA AWOS SUMMARY
NATIONAL WEATHER SERVICE MISSOULA MT
653 AM MDT FRI OCT 24 2014

Montana AWOS Reports

ROUNDUP     |KRPX 241235Z AUTO 20004KT 40SM 07/01 A2989 RMK AO1 T00720006






000
SXUS55 KMSO 241243
OSOMSO
MONTANA AWOS SUMMARY
NATIONAL WEATHER SERVICE MISSOULA MT
643 AM MDT FRI OCT 24 2014

Montana AWOS Reports

LAUREL      |K6S8 241235Z AUTO 00000KT 40SM 07/M02 A2996 RMK AO1 T00721016






000
SXUS55 KMSO 241223
OSOMSO
MONTANA AWOS SUMMARY
NATIONAL WEATHER SERVICE MISSOULA MT
622 AM MDT FRI OCT 24 2014

Montana AWOS Reports

MALTA       |KM75 241155Z AUTO 40SM 08/03 A2983 RMK AO1 T00830033
LAUREL      |K6S8 241215Z AUTO 00000KT 40SM 07/M02 A2995 RMK AO1 T00721021
ROUNDUP     |KRPX 241215Z AUTO 21005KT 40SM 08/01 A2988 RMK AO1 T00830011






000
SXUS55 KMSO 241203
OSOMSO
MONTANA AWOS SUMMARY
NATIONAL WEATHER SERVICE MISSOULA MT
603 AM MDT FRI OCT 24 2014

Montana AWOS Reports

LAUREL      |K6S8 241155Z AUTO 00000KT 40SM 08/M02 A2995 RMK AO1 T00781016
ROUNDUP     |KRPX 241155Z AUTO 21006KT 40SM 08/01 A2988 RMK AO1 T00830011
SCOBEY      |K9S2 241155Z AUTO 24015KT 40SM 09/02 A2981 RMK AO1 T00940022
PLAINS      |KS34 241155Z AUTO 00000KT 40SM 09/02 A3005 RMK AO1 T00890017






000
SXUS55 KMSO 241143
OSOMSO
MONTANA AWOS SUMMARY
NATIONAL WEATHER SERVICE MISSOULA MT
543 AM MDT FRI OCT 24 2014

Montana AWOS Reports

LAUREL      |K6S8 241135Z AUTO 00000KT 40SM 08/M03 A2994 RMK AO1 T00781027
ROUNDUP     |KRPX 241135Z AUTO 21005KT 40SM 08/01 A2987 RMK AO1 T00830011






000
SXUS55 KMSO 241123
OSOMSO
MONTANA AWOS SUMMARY
NATIONAL WEATHER SERVICE MISSOULA MT
523 AM MDT FRI OCT 24 2014

Montana AWOS Reports

LAUREL      |K6S8 241115Z AUTO 00000KT 40SM 08/M02 A2994 RMK AO1 T00831021
ROUNDUP     |KRPX 241115Z AUTO 21004KT 40SM 08/01 A2986 RMK AO1 T00780006






000
SXUS55 KMSO 241113
OSOMSO
MONTANA AWOS SUMMARY
NATIONAL WEATHER SERVICE MISSOULA MT
513 AM MDT FRI OCT 24 2014

Montana AWOS Reports

PLAINS      |KS34 241055Z AUTO 00000KT 40SM 09/02 A3005 RMK AO1 T00890017
SCOBEY      |K9S2 241055Z AUTO 23009KT 40SM 10/02 A2979 RMK AO1 T01000022






000
SXUS55 KMSO 241103
OSOMSO
MONTANA AWOS SUMMARY
NATIONAL WEATHER SERVICE MISSOULA MT
503 AM MDT FRI OCT 24 2014

Montana AWOS Reports

LAUREL      |K6S8 241055Z AUTO 00000KT 40SM 09/M03 A2993 RMK AO1 T00891027
ROUNDUP     |KRPX 241055Z AUTO 21004KT 40SM 08/00 A2986 RMK AO1 T00780000






000
SXUS55 KMSO 241043
OSOMSO
MONTANA AWOS SUMMARY
NATIONAL WEATHER SERVICE MISSOULA MT
443 AM MDT FRI OCT 24 2014

Montana AWOS Reports

LAUREL      |K6S8 241035Z AUTO 00000KT 40SM 09/M02 A2992 RMK AO1 T00941021
ROUNDUP     |KRPX 241035Z AUTO 00000KT 40SM 08/00 A2985 RMK AO1 T00830000






000
SXUS55 KMSO 241023
OSOMSO
MONTANA AWOS SUMMARY
NATIONAL WEATHER SERVICE MISSOULA MT
422 AM MDT FRI OCT 24 2014

Montana AWOS Reports

LAUREL      |K6S8 241015Z AUTO 00000KT 40SM 09/M02 A2991 RMK AO1 T00941021
ROUNDUP     |KRPX 241015Z AUTO 00000KT 40SM 09/01 A2985 RMK AO1 T00940011






000
SXUS55 KMSO 241013
OSOMSO
MONTANA AWOS SUMMARY
NATIONAL WEATHER SERVICE MISSOULA MT
413 AM MDT FRI OCT 24 2014

Montana AWOS Reports

SCOBEY      |K9S2 240955Z AUTO 24008KT 40SM 11/03 A2978 RMK AO1 T01110033
MALTA       |KM75 240955Z AUTO 00000KT 40SM 08/03 A2981 RMK AO1 T00830028
PLAINS      |KS34 240955Z AUTO 00000KT 40SM 10/01 A3003 RMK AO1 T01000011






000
SXUS55 KMSO 240953
OSOMSO
MONTANA AWOS SUMMARY
NATIONAL WEATHER SERVICE MISSOULA MT
353 AM MDT FRI OCT 24 2014

Montana AWOS Reports

LAUREL      |K6S8 240935Z AUTO 00000KT 40SM 11/M03 A2991 RMK AO1 T01061027
ROUNDUP     |KRPX 240935Z AUTO 00000KT 40SM 09/00 A2984 RMK AO1 T00890000






000
SXUS55 KMSO 240923
OSOMSO
MONTANA AWOS SUMMARY
NATIONAL WEATHER SERVICE MISSOULA MT
323 AM MDT FRI OCT 24 2014

Montana AWOS Reports

LAUREL      |K6S8 240915Z AUTO 28004KT 40SM 11/M03 A2991 RMK AO1 T01061027
ROUNDUP     |KRPX 240915Z AUTO 00000KT 40SM 09/M01 A2984 RMK AO1 T00891005






000
SXUS55 KMSO 240913
OSOMSO
MONTANA AWOS SUMMARY
NATIONAL WEATHER SERVICE MISSOULA MT
313 AM MDT FRI OCT 24 2014

Montana AWOS Reports

ROUNDUP     |KRPX 240855Z AUTO 00000KT 40SM 09/M01 A2984 RMK AO1 T00891005
SCOBEY      |K9S2 240855Z AUTO 25011KT 40SM 13/03 A2978 RMK AO1 T01280028
MALTA       |KM75 240855Z AUTO 00000KT 40SM 09/03 A2980 RMK AO1 T00940033
PLAINS      |KS34 240855Z AUTO 20008KT 40SM 10/01 A3002 RMK AO1 T01000006






000
SXUS55 KMSO 240903
OSOMSO
MONTANA AWOS SUMMARY
NATIONAL WEATHER SERVICE MISSOULA MT
303 AM MDT FRI OCT 24 2014

Montana AWOS Reports

LAUREL      |K6S8 240855Z AUTO 00000KT 40SM 13/M03 A2991 RMK AO1 T01281027






000
SXUS55 KMSO 240843
OSOMSO
MONTANA AWOS SUMMARY
NATIONAL WEATHER SERVICE MISSOULA MT
243 AM MDT FRI OCT 24 2014

Montana AWOS Reports

LAUREL      |K6S8 240835Z AUTO 00000KT 40SM 12/M03 A2991 RMK AO1 T01171027
ROUNDUP     |KRPX 240835Z AUTO 00000KT 40SM 10/M01 A2983 RMK AO1 T01001010






000
SXUS55 KMSO 240823
OSOMSO
MONTANA AWOS SUMMARY
NATIONAL WEATHER SERVICE MISSOULA MT
223 AM MDT FRI OCT 24 2014

Montana AWOS Reports

LAUREL      |K6S8 240815Z AUTO 00000KT 40SM 11/M03 A2989 RMK AO1 T01111032
ROUNDUP     |KRPX 240815Z AUTO 24005KT 40SM 11/M01 A2982 RMK AO1 T01111005






000
SXUS55 KMSO 240813
OSOMSO
MONTANA AWOS SUMMARY
NATIONAL WEATHER SERVICE MISSOULA MT
213 AM MDT FRI OCT 24 2014

Montana AWOS Reports

PLAINS      |KS34 240755Z AUTO 00000KT 40SM 10/01 A3001 RMK AO1 T01000011






000
SXUS55 KMSO 240813
OSOMSO
MONTANA AWOS SUMMARY
NATIONAL WEATHER SERVICE MISSOULA MT
213 AM MDT FRI OCT 24 2014

Montana AWOS Reports

PLAINS      |KS34 240755Z AUTO 00000KT 40SM 10/01 A3001 RMK AO1 T01000011






000
SXUS55 KMSO 240803
OSOMSO
MONTANA AWOS SUMMARY
NATIONAL WEATHER SERVICE MISSOULA MT
203 AM MDT FRI OCT 24 2014

Montana AWOS Reports

LAUREL      |K6S8 240755Z AUTO 00000KT 40SM 11/M03 A2989 RMK AO1 T01061027
ROUNDUP     |KRPX 240755Z AUTO 21005KT 40SM 11/M01 A2982 RMK AO1 T01111010
SCOBEY      |K9S2 240755Z AUTO 22015G19KT 40SM 13/02 A2976 RMK AO1 T01280022
MALTA       |KM75 240755Z AUTO 00000KT 40SM 12/04 A2978 RMK AO1 T01170044






000
SXUS55 KMSO 240744
OSOMSO
MONTANA AWOS SUMMARY
NATIONAL WEATHER SERVICE MISSOULA MT
143 AM MDT FRI OCT 24 2014

Montana AWOS Reports

LAUREL      |K6S8 240735Z AUTO 00000KT 40SM 11/M03 A2989 RMK AO1 T01111027
ROUNDUP     |KRPX 240735Z AUTO 21006KT 40SM 12/M01 A2982 RMK AO1 T01171010






000
SXUS55 KMSO 240723
OSOMSO
MONTANA AWOS SUMMARY
NATIONAL WEATHER SERVICE MISSOULA MT
123 AM MDT FRI OCT 24 2014

Montana AWOS Reports

LAUREL      |K6S8 240715Z AUTO 00000KT 40SM 12/M03 A2989 RMK AO1 T01221027
ROUNDUP     |KRPX 240715Z AUTO 23006KT 40SM 12/M01 A2982 RMK AO1 T01221010






000
SXUS55 KMSO 240703
OSOMSO
MONTANA AWOS SUMMARY
NATIONAL WEATHER SERVICE MISSOULA MT
103 AM MDT FRI OCT 24 2014

Montana AWOS Reports

LAUREL      |K6S8 240655Z AUTO 00000KT 40SM 13/M03 A2989 RMK AO1 T01281027
ROUNDUP     |KRPX 240655Z AUTO 22006KT 40SM 12/M01 A2981 RMK AO1 T01171010
SCOBEY      |K9S2 240655Z AUTO 22009KT 40SM 13/02 A2976 RMK AO1 T01280017
MALTA       |KM75 240655Z AUTO 25006KT 40SM 14/04 A2976 RMK AO1 T01440044
PLAINS      |KS34 240655Z AUTO 00000KT 40SM 09/02 A2999 RMK AO1 T00940022






000
SXUS55 KMSO 240643
OSOMSO
MONTANA AWOS SUMMARY
NATIONAL WEATHER SERVICE MISSOULA MT
1243 AM MDT FRI OCT 24 2014

Montana AWOS Reports

LAUREL      |K6S8 240635Z AUTO 00000KT 40SM 13/M03 A2990 RMK AO1 T01281027
ROUNDUP     |KRPX 240635Z AUTO 00000KT 40SM 11/M01 A2981 RMK AO1 T01111010






000
SXUS55 KMSO 240624
OSOMSO
MONTANA AWOS SUMMARY
NATIONAL WEATHER SERVICE MISSOULA MT
1223 AM MDT FRI OCT 24 2014

Montana AWOS Reports

LAUREL      |K6S8 240615Z AUTO 00000KT 40SM 14/M03 A2989 RMK AO1 T01391027
ROUNDUP     |KRPX 240615Z AUTO 00000KT 40SM 11/M01 A2981 RMK AO1 T01061005






000
SXUS55 KMSO 240603
OSOMSO
MONTANA AWOS SUMMARY
NATIONAL WEATHER SERVICE MISSOULA MT
1202 AM MDT FRI OCT 24 2014

Montana AWOS Reports

LAUREL      |K6S8 240555Z AUTO 00000KT 40SM 14/M03 A2990 RMK AO1 T01391027
ROUNDUP     |KRPX 240555Z AUTO 00000KT 40SM 11/M01 A2981 RMK AO1 T01061010
PLAINS      |KS34 240555Z AUTO 18008KT 40SM 10/03 A2996 RMK AO1 T01000033
MALTA       |KM75 240555Z AUTO 00000KT 40SM 11/04 A2975 RMK AO1 T01110039
SCOBEY      |K9S2 240555Z AUTO 22012G22KT 40SM 13/02 A2976 RMK AO1 T01330022






000
SXUS55 KMSO 240543
OSOMSO
MONTANA AWOS SUMMARY
NATIONAL WEATHER SERVICE MISSOULA MT
1143 PM MDT THU OCT 23 2014

Montana AWOS Reports

LAUREL      |K6S8 240515Z AUTO 00000KT 40SM 14/M03 A2989 RMK AO1 T01391027
ROUNDUP     |KRPX 240515Z AUTO 21005KT 40SM 12/M01 A2980 RMK AO1 T01171005
LAUREL      |K6S8 240535Z AUTO 00000KT 40SM 14/M03 A2990 RMK AO1 T01441027
ROUNDUP     |KRPX 240535Z AUTO 00000KT 40SM 12/M01 A2981 RMK AO1 T01171010






000
SXUS55 KMSO 240503
OSOMSO
MONTANA AWOS SUMMARY
NATIONAL WEATHER SERVICE MISSOULA MT
1103 PM MDT THU OCT 23 2014

Montana AWOS Reports

LAUREL      |K6S8 240455Z AUTO 00000KT 40SM 13/M03 A2989 RMK AO1 T01331032
ROUNDUP     |KRPX 240455Z AUTO 00000KT 40SM 11/00 A2980 RMK AO1 T01060000
SCOBEY      |K9S2 240455Z AUTO 19008KT 40SM 12/02 A2976 RMK AO1 T01170017
MALTA       |KM75 240455Z AUTO 00000KT 40SM 10/04 A2975 RMK AO1 T01000039
PLAINS      |KS34 240455Z AUTO 17005KT 40SM 09/04 A2996 RMK AO1 T00940039






000
SXUS55 KMSO 240503
OSOMSO
MONTANA AWOS SUMMARY
NATIONAL WEATHER SERVICE MISSOULA MT
1103 PM MDT THU OCT 23 2014

Montana AWOS Reports

LAUREL      |K6S8 240455Z AUTO 00000KT 40SM 13/M03 A2989 RMK AO1 T01331032
ROUNDUP     |KRPX 240455Z AUTO 00000KT 40SM 11/00 A2980 RMK AO1 T01060000
SCOBEY      |K9S2 240455Z AUTO 19008KT 40SM 12/02 A2976 RMK AO1 T01170017
MALTA       |KM75 240455Z AUTO 00000KT 40SM 10/04 A2975 RMK AO1 T01000039
PLAINS      |KS34 240455Z AUTO 17005KT 40SM 09/04 A2996 RMK AO1 T00940039






000
SXUS55 KMSO 240443
OSOMSO
MONTANA AWOS SUMMARY
NATIONAL WEATHER SERVICE MISSOULA MT
1043 PM MDT THU OCT 23 2014

Montana AWOS Reports

LAUREL      |K6S8 240435Z AUTO 00000KT 40SM 13/M03 A2989 RMK AO1 T01331032
ROUNDUP     |KRPX 240435Z AUTO 00000KT 40SM 13/M01 A2979 RMK AO1 T01331010






000
SXUS55 KMSO 240424
OSOMSO
MONTANA AWOS SUMMARY
NATIONAL WEATHER SERVICE MISSOULA MT
1023 PM MDT THU OCT 23 2014

Montana AWOS Reports

LAUREL      |K6S8 240415Z AUTO 00000KT 40SM 13/M03 A2989 RMK AO1 T01331032
ROUNDUP     |KRPX 240415Z AUTO 23004KT 40SM 14/M02 A2979 RMK AO1 T01441016






000
SXUS55 KMSO 240403
OSOMSO
MONTANA AWOS SUMMARY
NATIONAL WEATHER SERVICE MISSOULA MT
1003 PM MDT THU OCT 23 2014

Montana AWOS Reports

LAUREL      |K6S8 240355Z AUTO 00000KT 40SM 13/M04 A2989 RMK AO1 T01331038
ROUNDUP     |KRPX 240355Z AUTO 00000KT 40SM 14/M02 A2979 RMK AO1 T01391016
SCOBEY      |K9S2 240355Z AUTO 00000KT 40SM 11/02 A2976 RMK AO1 T01060022
MALTA       |KM75 240355Z AUTO 00000KT 40SM 11/04 A2974 RMK AO1 T01060039
PLAINS      |KS34 240355Z AUTO 00000KT 40SM 11/04 A2995 RMK AO1 T01060044






000
SXUS55 KMSO 240403
OSOMSO
MONTANA AWOS SUMMARY
NATIONAL WEATHER SERVICE MISSOULA MT
1003 PM MDT THU OCT 23 2014

Montana AWOS Reports

LAUREL      |K6S8 240355Z AUTO 00000KT 40SM 13/M04 A2989 RMK AO1 T01331038
ROUNDUP     |KRPX 240355Z AUTO 00000KT 40SM 14/M02 A2979 RMK AO1 T01391016
SCOBEY      |K9S2 240355Z AUTO 00000KT 40SM 11/02 A2976 RMK AO1 T01060022
MALTA       |KM75 240355Z AUTO 00000KT 40SM 11/04 A2974 RMK AO1 T01060039
PLAINS      |KS34 240355Z AUTO 00000KT 40SM 11/04 A2995 RMK AO1 T01060044






000
SXUS55 KMSO 240343
OSOMSO
MONTANA AWOS SUMMARY
NATIONAL WEATHER SERVICE MISSOULA MT
943 PM MDT THU OCT 23 2014

Montana AWOS Reports

LAUREL      |K6S8 240335Z AUTO 00000KT 40SM 13/M04 A2989 RMK AO1 T01331038
ROUNDUP     |KRPX 240335Z AUTO 23005KT 40SM 13/M01 A2980 RMK AO1 T01281005






000
SXUS55 KMSO 240343
OSOMSO
MONTANA AWOS SUMMARY
NATIONAL WEATHER SERVICE MISSOULA MT
943 PM MDT THU OCT 23 2014

Montana AWOS Reports

LAUREL      |K6S8 240335Z AUTO 00000KT 40SM 13/M04 A2989 RMK AO1 T01331038
ROUNDUP     |KRPX 240335Z AUTO 23005KT 40SM 13/M01 A2980 RMK AO1 T01281005






000
SXUS55 KMSO 240323
OSOMSO
MONTANA AWOS SUMMARY
NATIONAL WEATHER SERVICE MISSOULA MT
923 PM MDT THU OCT 23 2014

Montana AWOS Reports

ROUNDUP     |KRPX 240315Z AUTO 19004KT 40SM 12/02 A2979 RMK AO1 T01220017
LAUREL      |K6S8 240315Z AUTO 00000KT 40SM 13/M04 A2989 RMK AO1 T01281038






000
SXUS55 KMSO 240323
OSOMSO
MONTANA AWOS SUMMARY
NATIONAL WEATHER SERVICE MISSOULA MT
923 PM MDT THU OCT 23 2014

Montana AWOS Reports

ROUNDUP     |KRPX 240315Z AUTO 19004KT 40SM 12/02 A2979 RMK AO1 T01220017
LAUREL      |K6S8 240315Z AUTO 00000KT 40SM 13/M04 A2989 RMK AO1 T01281038






000
SXUS55 KMSO 240303
OSOMSO
MONTANA AWOS SUMMARY
NATIONAL WEATHER SERVICE MISSOULA MT
903 PM MDT THU OCT 23 2014

Montana AWOS Reports

LAUREL      |K6S8 240255Z AUTO 00000KT 40SM 13/M04 A2989 RMK AO1 T01281038
ROUNDUP     |KRPX 240255Z AUTO 20004KT 40SM 11/01 A2979 RMK AO1 T01060011
SCOBEY      |K9S2 240255Z AUTO 00000KT 40SM 09/02 A2976 RMK AO1 T00890017
MALTA       |KM75 240255Z AUTO 00000KT 40SM 11/04 A2973 RMK AO1 T01060039
PLAINS      |KS34 240255Z AUTO 00000KT 15SM 09/07 A2993 RMK AO1 T00940072






000
SXUS55 KMSO 240303
OSOMSO
MONTANA AWOS SUMMARY
NATIONAL WEATHER SERVICE MISSOULA MT
903 PM MDT THU OCT 23 2014

Montana AWOS Reports

LAUREL      |K6S8 240255Z AUTO 00000KT 40SM 13/M04 A2989 RMK AO1 T01281038
ROUNDUP     |KRPX 240255Z AUTO 20004KT 40SM 11/01 A2979 RMK AO1 T01060011
SCOBEY      |K9S2 240255Z AUTO 00000KT 40SM 09/02 A2976 RMK AO1 T00890017
MALTA       |KM75 240255Z AUTO 00000KT 40SM 11/04 A2973 RMK AO1 T01060039
PLAINS      |KS34 240255Z AUTO 00000KT 15SM 09/07 A2993 RMK AO1 T00940072






000
SXUS55 KMSO 240243
OSOMSO
MONTANA AWOS SUMMARY
NATIONAL WEATHER SERVICE MISSOULA MT
843 PM MDT THU OCT 23 2014

Montana AWOS Reports

LAUREL      |K6S8 240235Z AUTO 00000KT 40SM 13/M04 A2988 RMK AO1 T01331043
ROUNDUP     |KRPX 240235Z AUTO 19005KT 40SM 12/02 A2978 RMK AO1 T01220022






000
SXUS55 KMSO 240243
OSOMSO
MONTANA AWOS SUMMARY
NATIONAL WEATHER SERVICE MISSOULA MT
843 PM MDT THU OCT 23 2014

Montana AWOS Reports

LAUREL      |K6S8 240235Z AUTO 00000KT 40SM 13/M04 A2988 RMK AO1 T01331043
ROUNDUP     |KRPX 240235Z AUTO 19005KT 40SM 12/02 A2978 RMK AO1 T01220022






000
SXUS55 KMSO 240223
OSOMSO
MONTANA AWOS SUMMARY
NATIONAL WEATHER SERVICE MISSOULA MT
823 PM MDT THU OCT 23 2014

Montana AWOS Reports

LAUREL      |K6S8 240215Z AUTO 00000KT 40SM 15/M04 A2988 RMK AO1 T01501038
ROUNDUP     |KRPX 240215Z AUTO 19005KT 40SM 13/02 A2979 RMK AO1 T01330017






000
SXUS55 KMSO 240223
OSOMSO
MONTANA AWOS SUMMARY
NATIONAL WEATHER SERVICE MISSOULA MT
823 PM MDT THU OCT 23 2014

Montana AWOS Reports

LAUREL      |K6S8 240215Z AUTO 00000KT 40SM 15/M04 A2988 RMK AO1 T01501038
ROUNDUP     |KRPX 240215Z AUTO 19005KT 40SM 13/02 A2979 RMK AO1 T01330017






000
SXUS55 KMSO 240203
OSOMSO
MONTANA AWOS SUMMARY
NATIONAL WEATHER SERVICE MISSOULA MT
803 PM MDT THU OCT 23 2014

Montana AWOS Reports

LAUREL      |K6S8 240155Z AUTO 00000KT 40SM 15/M04 A2988 RMK AO1 T01501038
ROUNDUP     |KRPX 240155Z AUTO 00000KT 40SM 11/02 A2979 RMK AO1 T01110017
SCOBEY      |K9S2 240155Z AUTO 23004KT 40SM 11/02 A2976 RMK AO1 T01060017
MALTA       |KM75 240155Z AUTO 00000KT 25SM 13/04 A2974 RMK AO1 T01330044






000
SXUS55 KMSO 240203
OSOMSO
MONTANA AWOS SUMMARY
NATIONAL WEATHER SERVICE MISSOULA MT
803 PM MDT THU OCT 23 2014

Montana AWOS Reports

LAUREL      |K6S8 240155Z AUTO 00000KT 40SM 15/M04 A2988 RMK AO1 T01501038
ROUNDUP     |KRPX 240155Z AUTO 00000KT 40SM 11/02 A2979 RMK AO1 T01110017
SCOBEY      |K9S2 240155Z AUTO 23004KT 40SM 11/02 A2976 RMK AO1 T01060017
MALTA       |KM75 240155Z AUTO 00000KT 25SM 13/04 A2974 RMK AO1 T01330044






000
SXUS55 KMSO 240143
OSOMSO
MONTANA AWOS SUMMARY
NATIONAL WEATHER SERVICE MISSOULA MT
743 PM MDT THU OCT 23 2014

Montana AWOS Reports

LAUREL      |K6S8 240135Z AUTO 00000KT 40SM 14/M04 A2989 RMK AO1 T01441043
ROUNDUP     |KRPX 240135Z AUTO 00000KT 40SM 13/02 A2980 RMK AO1 T01330017






000
SXUS55 KMSO 240123
OSOMSO
MONTANA AWOS SUMMARY
NATIONAL WEATHER SERVICE MISSOULA MT
723 PM MDT THU OCT 23 2014

Montana AWOS Reports

LAUREL      |K6S8 240115Z AUTO 00000KT 40SM 15/M04 A2989 RMK AO1 T01501038
ROUNDUP     |KRPX 240115Z AUTO 00000KT 40SM 16/01 A2979 RMK AO1 T01560011






000
SXUS55 KMSO 240103
OSOMSO
MONTANA AWOS SUMMARY
NATIONAL WEATHER SERVICE MISSOULA MT
703 PM MDT THU OCT 23 2014

Montana AWOS Reports

LAUREL      |K6S8 240055Z AUTO 00000KT 40SM 16/M03 A2989 RMK AO1 T01611032
ROUNDUP     |KRPX 240055Z AUTO 00000KT 40SM 15/00 A2980 RMK AO1 T01500000
SCOBEY      |K9S2 240055Z AUTO 00000KT 40SM 12/02 A2978 RMK AO1 T01170022
PLAINS      |KS34 240055Z AUTO 00000KT 15SM 11/08 A2988 RMK AO1 T01060078
MALTA       |KM75 240055Z AUTO 00000KT 40SM 11/04 A2975 RMK AO1 T01110044






000
SXUS55 KMSO 240044
OSOMSO
MONTANA AWOS SUMMARY
NATIONAL WEATHER SERVICE MISSOULA MT
643 PM MDT THU OCT 23 2014

Montana AWOS Reports

LAUREL      |K6S8 240035Z AUTO 00000KT 40SM 17/M03 A2988 RMK AO1 T01721032
ROUNDUP     |KRPX 240035Z AUTO 00000KT 40SM 15/02 A2979 RMK AO1 T01500017






000
SXUS55 KMSO 240024
OSOMSO
MONTANA AWOS SUMMARY
NATIONAL WEATHER SERVICE MISSOULA MT
623 PM MDT THU OCT 23 2014

Montana AWOS Reports

LAUREL      |K6S8 240015Z AUTO 00000KT 40SM 19/M02 A2988 RMK AO1 T01891021
ROUNDUP     |KRPX 240015Z AUTO 00000KT 40SM 16/M01 A2979 RMK AO1 T01611005






000
SXUS55 KMSO 240013
OSOMSO
MONTANA AWOS SUMMARY
NATIONAL WEATHER SERVICE MISSOULA MT
612 PM MDT THU OCT 23 2014

Montana AWOS Reports

LAUREL      |K6S8 232355Z AUTO 19004KT 40SM 19/M02 A2988 RMK AO1 T01941021
ROUNDUP     |KRPX 232355Z AUTO 00000KT 40SM 17/01 A2979 RMK AO1 T01720006






000
SXUS55 KMSO 240003
OSOMSO
MONTANA AWOS SUMMARY
NATIONAL WEATHER SERVICE MISSOULA MT
603 PM MDT THU OCT 23 2014

Montana AWOS Reports

SCOBEY      |K9S2 232355Z AUTO 00000KT 40SM 14/02 A2977 RMK AO1 T01390022
PLAINS      |KS34 232355Z AUTO 31006KT 2 1/2SM 10/07 A2988 RMK AO1 T01000067






000
SXUS55 KMSO 232353
OSOMSO
MONTANA AWOS SUMMARY
NATIONAL WEATHER SERVICE MISSOULA MT
553 PM MDT THU OCT 23 2014

Montana AWOS Reports

LAUREL      |K6S8 232335Z AUTO 00000KT 40SM 21/M02 A2987 RMK AO1 T02061021






000
SXUS55 KMSO 232343
OSOMSO
MONTANA AWOS SUMMARY
NATIONAL WEATHER SERVICE MISSOULA MT
543 PM MDT THU OCT 23 2014

Montana AWOS Reports

ROUNDUP     |KRPX 232335Z AUTO 00000KT 40SM 17/00 A2979 RMK AO1 T01720000






000
SXUS55 KMSO 232323
OSOMSO
MONTANA AWOS SUMMARY
NATIONAL WEATHER SERVICE MISSOULA MT
523 PM MDT THU OCT 23 2014

Montana AWOS Reports

LAUREL      |K6S8 232315Z AUTO 00000KT 40SM 21/M03 A2986 RMK AO1 T02061027
ROUNDUP     |KRPX 232315Z AUTO 00000KT 40SM 18/01 A2978 RMK AO1 T01780006






000
SXUS55 KMSO 232313
OSOMSO
MONTANA AWOS SUMMARY
NATIONAL WEATHER SERVICE MISSOULA MT
512 PM MDT THU OCT 23 2014

Montana AWOS Reports

LAUREL      |K6S8 232255Z AUTO 25011G18KT 40SM 21/M03 A2986 RMK AO1 T02111027
ROUNDUP     |KRPX 232255Z AUTO 00000KT 40SM 17/00 A2978 RMK AO1 T01720000
PLAINS      |KS34 232255Z AUTO 00000KT 2 1/2SM 12/08 A2985 RMK AO1 T01220083






000
SXUS55 KMSO 232303
OSOMSO
MONTANA AWOS SUMMARY
NATIONAL WEATHER SERVICE MISSOULA MT
502 PM MDT THU OCT 23 2014

Montana AWOS Reports

SCOBEY      |K9S2 232255Z AUTO 23004KT 40SM 16/02 A2976 RMK AO1 T01610022






000
SXUS55 KMSO 232253
OSOMSO
MONTANA AWOS SUMMARY
NATIONAL WEATHER SERVICE MISSOULA MT
452 PM MDT THU OCT 23 2014

Montana AWOS Reports

LAUREL      |K6S8 232235Z AUTO 23013KT 40SM 22/M02 A2986 RMK AO1 T02171021
ROUNDUP     |KRPX 232235Z AUTO 28008KT 40SM 18/00 A2978 RMK AO1 T01830000






000
SXUS55 KMSO 232223
OSOMSO
MONTANA AWOS SUMMARY
NATIONAL WEATHER SERVICE MISSOULA MT
423 PM MDT THU OCT 23 2014

Montana AWOS Reports

LAUREL      |K6S8 232215Z AUTO 23016G21KT 40SM 22/M03 A2986 RMK AO1 T02221027
ROUNDUP     |KRPX 232215Z AUTO 26006KT 40SM 19/M01 A2979 RMK AO1 T01891005






000
SXUS55 KMSO 232213
OSOMSO
MONTANA AWOS SUMMARY
NATIONAL WEATHER SERVICE MISSOULA MT
413 PM MDT THU OCT 23 2014

Montana AWOS Reports

LAUREL      |K6S8 232155Z AUTO 22012G19KT 40SM 22/M02 A2985 RMK AO1 T02221016
ROUNDUP     |KRPX 232155Z AUTO 26005KT 40SM 19/00 A2979 RMK AO1 T01940000
SCOBEY      |K9S2 232155Z AUTO 23007KT 40SM 18/01 A2975 RMK AO1 T01780011
PLAINS      |KS34 232155Z AUTO 18013G24KT 25SM 14/07 A2982 RMK AO1 T01390072
MALTA       |KM75 232155Z AUTO 00000KT 40SM 17/06 A2974 RMK AO1 T01720061






000
SXUS55 KMSO 232143
OSOMSO
MONTANA AWOS SUMMARY
NATIONAL WEATHER SERVICE MISSOULA MT
343 PM MDT THU OCT 23 2014

Montana AWOS Reports

LAUREL      |K6S8 232135Z AUTO 21008KT 40SM 22/M01 A2985 RMK AO1 T02221010
ROUNDUP     |KRPX 232135Z AUTO 25012G16KT 40SM 19/00 A2978 RMK AO1 T01940000






000
SXUS55 KMSO 232143
OSOMSO
MONTANA AWOS SUMMARY
NATIONAL WEATHER SERVICE MISSOULA MT
343 PM MDT THU OCT 23 2014

Montana AWOS Reports

LAUREL      |K6S8 232135Z AUTO 21008KT 40SM 22/M01 A2985 RMK AO1 T02221010
ROUNDUP     |KRPX 232135Z AUTO 25012G16KT 40SM 19/00 A2978 RMK AO1 T01940000






000
SXUS55 KMSO 232134
OSOMSO
MONTANA AWOS SUMMARY
NATIONAL WEATHER SERVICE MISSOULA MT
333 PM MDT THU OCT 23 2014

Montana AWOS Reports

MALTA       |KM75 232055Z AUTO 00000KT 40SM 19/06 A2974 RMK AO1 T01890056






000
SXUS55 KMSO 232123
OSOMSO
MONTANA AWOS SUMMARY
NATIONAL WEATHER SERVICE MISSOULA MT
323 PM MDT THU OCT 23 2014

Montana AWOS Reports

LAUREL      |K6S8 232115Z AUTO 20004KT 40SM 22/M02 A2986 RMK AO1 T02171021
ROUNDUP     |KRPX 232115Z AUTO 26009G14KT 40SM 19/00 A2978 RMK AO1 T01940000






000
SXUS55 KMSO 232104
OSOMSO
MONTANA AWOS SUMMARY
NATIONAL WEATHER SERVICE MISSOULA MT
303 PM MDT THU OCT 23 2014

Montana AWOS Reports

LAUREL      |K6S8 232055Z AUTO 19005KT 40SM 22/M02 A2986 RMK AO1 T02171016
ROUNDUP     |KRPX 232055Z AUTO 23007KT 40SM 19/01 A2978 RMK AO1 T01940006
PLAINS      |KS34 232055Z AUTO 19009KT 40SM 16/07 A2980 RMK AO1 T01610067






000
SXUS55 KMSO 232043
OSOMSO
MONTANA AWOS SUMMARY
NATIONAL WEATHER SERVICE MISSOULA MT
243 PM MDT THU OCT 23 2014

Montana AWOS Reports

LAUREL      |K6S8 232035Z AUTO 23008KT 40SM 21/M02 A2988 RMK AO1 T02111021
ROUNDUP     |KRPX 232035Z AUTO 24010G17KT 40SM 19/01 A2979 RMK AO1 T01940006






000
SXUS55 KMSO 232023
OSOMSO
MONTANA AWOS SUMMARY
NATIONAL WEATHER SERVICE MISSOULA MT
223 PM MDT THU OCT 23 2014

Montana AWOS Reports

LAUREL      |K6S8 232015Z AUTO 21007KT 40SM 21/M02 A2988 RMK AO1 T02111021
ROUNDUP     |KRPX 232015Z AUTO 23012KT 40SM 19/00 A2979 RMK AO1 T01890000






000
SXUS55 KMSO 232003
OSOMSO
MONTANA AWOS SUMMARY
NATIONAL WEATHER SERVICE MISSOULA MT
203 PM MDT THU OCT 23 2014

Montana AWOS Reports

LAUREL      |K6S8 231955Z AUTO 19007KT 40SM 21/M02 A2989 RMK AO1 T02111021
ROUNDUP     |KRPX 231955Z AUTO 22014G18KT 40SM 19/00 A2979 RMK AO1 T01940000
PLAINS      |KS34 231955Z AUTO 00000KT 40SM 15/09 A2981 RMK AO1 T01500089
MALTA       |KM75 231955Z AUTO 27007KT 40SM 19/05 A2973 RMK AO1 T01940050






000
SXUS55 KMSO 231943
OSOMSO
MONTANA AWOS SUMMARY
NATIONAL WEATHER SERVICE MISSOULA MT
142 PM MDT THU OCT 23 2014

Montana AWOS Reports

LAUREL      |K6S8 231935Z AUTO 00000KT 40SM 20/M03 A2989 RMK AO1 T02001032
ROUNDUP     |KRPX 231935Z AUTO 22012G16KT 40SM 19/M01 A2979 RMK AO1 T01891005






000
SXUS55 KMSO 231943
OSOMSO
MONTANA AWOS SUMMARY
NATIONAL WEATHER SERVICE MISSOULA MT
142 PM MDT THU OCT 23 2014

Montana AWOS Reports

LAUREL      |K6S8 231935Z AUTO 00000KT 40SM 20/M03 A2989 RMK AO1 T02001032
ROUNDUP     |KRPX 231935Z AUTO 22012G16KT 40SM 19/M01 A2979 RMK AO1 T01891005






000
SXUS55 KMSO 231934
OSOMSO
MONTANA AWOS SUMMARY
NATIONAL WEATHER SERVICE MISSOULA MT
133 PM MDT THU OCT 23 2014

Montana AWOS Reports

LAUREL      |K6S8 231915Z AUTO 19006KT 40SM 20/M03 A2989 RMK AO1 T02001032
ROUNDUP     |KRPX 231915Z AUTO 23012G19KT 40SM 19/00 A2979 RMK AO1 T01940000






000
SXUS55 KMSO 231934
OSOMSO
MONTANA AWOS SUMMARY
NATIONAL WEATHER SERVICE MISSOULA MT
133 PM MDT THU OCT 23 2014

Montana AWOS Reports

LAUREL      |K6S8 231915Z AUTO 19006KT 40SM 20/M03 A2989 RMK AO1 T02001032
ROUNDUP     |KRPX 231915Z AUTO 23012G19KT 40SM 19/00 A2979 RMK AO1 T01940000






000
SXUS55 KMSO 231904
OSOMSO
MONTANA AWOS SUMMARY
NATIONAL WEATHER SERVICE MISSOULA MT
104 PM MDT THU OCT 23 2014

Montana AWOS Reports

LAUREL      |K6S8 231855Z AUTO 18007KT 40SM 19/M04 A2991 RMK AO1 T01941038
ROUNDUP     |KRPX 231855Z AUTO 22012KT 40SM 18/01 A2979 RMK AO1 T01830006
MALTA       |KM75 231855Z AUTO 26007KT 2 1/2SM 19/04 A2974 RMK AO1 T01890044






000
SXUS55 KMSO 231904
OSOMSO
MONTANA AWOS SUMMARY
NATIONAL WEATHER SERVICE MISSOULA MT
104 PM MDT THU OCT 23 2014

Montana AWOS Reports

LAUREL      |K6S8 231855Z AUTO 18007KT 40SM 19/M04 A2991 RMK AO1 T01941038
ROUNDUP     |KRPX 231855Z AUTO 22012KT 40SM 18/01 A2979 RMK AO1 T01830006
MALTA       |KM75 231855Z AUTO 26007KT 2 1/2SM 19/04 A2974 RMK AO1 T01890044






000
SXUS55 KMSO 231844
OSOMSO
MONTANA AWOS SUMMARY
NATIONAL WEATHER SERVICE MISSOULA MT
1243 PM MDT THU OCT 23 2014

Montana AWOS Reports

LAUREL      |K6S8 231835Z AUTO 19010G15KT 40SM 19/M03 A2990 RMK AO1 T01891032
ROUNDUP     |KRPX 231835Z AUTO 21010KT 40SM 17/00 A2979 RMK AO1 T01670000






000
SXUS55 KMSO 231844
OSOMSO
MONTANA AWOS SUMMARY
NATIONAL WEATHER SERVICE MISSOULA MT
1243 PM MDT THU OCT 23 2014

Montana AWOS Reports

LAUREL      |K6S8 231835Z AUTO 19010G15KT 40SM 19/M03 A2990 RMK AO1 T01891032
ROUNDUP     |KRPX 231835Z AUTO 21010KT 40SM 17/00 A2979 RMK AO1 T01670000






000
SXUS55 KMSO 231823
OSOMSO
MONTANA AWOS SUMMARY
NATIONAL WEATHER SERVICE MISSOULA MT
1223 PM MDT THU OCT 23 2014

Montana AWOS Reports

LAUREL      |K6S8 231815Z AUTO 19009G14KT 40SM 18/M03 A2991 RMK AO1 T01831032
ROUNDUP     |KRPX 231815Z AUTO 21008KT 40SM 17/00 A2980 RMK AO1 T01670000






000
SXUS55 KMSO 231823
OSOMSO
MONTANA AWOS SUMMARY
NATIONAL WEATHER SERVICE MISSOULA MT
1223 PM MDT THU OCT 23 2014

Montana AWOS Reports

LAUREL      |K6S8 231815Z AUTO 19009G14KT 40SM 18/M03 A2991 RMK AO1 T01831032
ROUNDUP     |KRPX 231815Z AUTO 21008KT 40SM 17/00 A2980 RMK AO1 T01670000






000
SXUS55 KMSO 231803
OSOMSO
MONTANA AWOS SUMMARY
NATIONAL WEATHER SERVICE MISSOULA MT
1203 PM MDT THU OCT 23 2014

Montana AWOS Reports

LAUREL      |K6S8 231755Z AUTO 20008KT 40SM 18/M03 A2991 RMK AO1 T01781032
ROUNDUP     |KRPX 231755Z AUTO 20010G15KT 40SM 16/M01 A2980 RMK AO1 T01611005
MALTA       |KM75 231755Z AUTO 00000KT 7SM 16/05 A2975 RMK AO1 T01560050
SCOBEY      |K9S2 231755Z AUTO 18005KT 40SM 13/01 A2978 RMK AO1 T01280006






000
SXUS55 KMSO 231803
OSOMSO
MONTANA AWOS SUMMARY
NATIONAL WEATHER SERVICE MISSOULA MT
1203 PM MDT THU OCT 23 2014

Montana AWOS Reports

LAUREL      |K6S8 231755Z AUTO 20008KT 40SM 18/M03 A2991 RMK AO1 T01781032
ROUNDUP     |KRPX 231755Z AUTO 20010G15KT 40SM 16/M01 A2980 RMK AO1 T01611005
MALTA       |KM75 231755Z AUTO 00000KT 7SM 16/05 A2975 RMK AO1 T01560050
SCOBEY      |K9S2 231755Z AUTO 18005KT 40SM 13/01 A2978 RMK AO1 T01280006






000
SXUS55 KMSO 231753
OSOMSO
MONTANA AWOS SUMMARY
NATIONAL WEATHER SERVICE MISSOULA MT
1153 AM MDT THU OCT 23 2014

Montana AWOS Reports

LAUREL      |K6S8 231735Z AUTO 20009G18KT 40SM 18/M03 A2991 RMK AO1 T01781032
ROUNDUP     |KRPX 231735Z AUTO 20013G18KT 40SM 15/M01 A2980 RMK AO1 T01501010






000
SXUS55 KMSO 231753
OSOMSO
MONTANA AWOS SUMMARY
NATIONAL WEATHER SERVICE MISSOULA MT
1153 AM MDT THU OCT 23 2014

Montana AWOS Reports

LAUREL      |K6S8 231735Z AUTO 20009G18KT 40SM 18/M03 A2991 RMK AO1 T01781032
ROUNDUP     |KRPX 231735Z AUTO 20013G18KT 40SM 15/M01 A2980 RMK AO1 T01501010






000
SXUS55 KMSO 231723
OSOMSO
MONTANA AWOS SUMMARY
NATIONAL WEATHER SERVICE MISSOULA MT
1123 AM MDT THU OCT 23 2014

Montana AWOS Reports

LAUREL      |K6S8 231715Z AUTO 20007KT 40SM 18/M03 A2991 RMK AO1 T01781032
ROUNDUP     |KRPX 231715Z AUTO 20015G20KT 40SM 15/M02 A2981 RMK AO1 T01501016






000
SXUS55 KMSO 231714
OSOMSO
MONTANA AWOS SUMMARY
NATIONAL WEATHER SERVICE MISSOULA MT
1113 AM MDT THU OCT 23 2014

Montana AWOS Reports

MALTA       |KM75 231655Z AUTO 00000KT 40SM 12/03 A2975 RMK AO1 T01220028






000
SXUS55 KMSO 231714
OSOMSO
MONTANA AWOS SUMMARY
NATIONAL WEATHER SERVICE MISSOULA MT
1113 AM MDT THU OCT 23 2014

Montana AWOS Reports

MALTA       |KM75 231655Z AUTO 00000KT 40SM 12/03 A2975 RMK AO1 T01220028






000
SXUS55 KMSO 231704
OSOMSO
MONTANA AWOS SUMMARY
NATIONAL WEATHER SERVICE MISSOULA MT
1103 AM MDT THU OCT 23 2014

Montana AWOS Reports

LAUREL      |K6S8 231655Z AUTO 21009G15KT 40SM 17/M04 A2991 RMK AO1 T01671043
ROUNDUP     |KRPX 231655Z AUTO 20008KT 40SM 15/M01 A2980 RMK AO1 T01501010
SCOBEY      |K9S2 231655Z AUTO 17007KT 40SM 11/M01 A2978 RMK AO1 T01061005
PLAINS      |KS34 231655Z AUTO 00000KT 40SM 10/08 A2986 RMK AO1 T01000083






000
SXUS55 KMSO 231704
OSOMSO
MONTANA AWOS SUMMARY
NATIONAL WEATHER SERVICE MISSOULA MT
1103 AM MDT THU OCT 23 2014

Montana AWOS Reports

LAUREL      |K6S8 231655Z AUTO 21009G15KT 40SM 17/M04 A2991 RMK AO1 T01671043
ROUNDUP     |KRPX 231655Z AUTO 20008KT 40SM 15/M01 A2980 RMK AO1 T01501010
SCOBEY      |K9S2 231655Z AUTO 17007KT 40SM 11/M01 A2978 RMK AO1 T01061005
PLAINS      |KS34 231655Z AUTO 00000KT 40SM 10/08 A2986 RMK AO1 T01000083






000
SXUS55 KMSO 231643
OSOMSO
MONTANA AWOS SUMMARY
NATIONAL WEATHER SERVICE MISSOULA MT
1043 AM MDT THU OCT 23 2014

Montana AWOS Reports

LAUREL      |K6S8 231635Z AUTO 21014G18KT 40SM 16/M04 A2990 RMK AO1 T01611038
ROUNDUP     |KRPX 231635Z AUTO 21013KT 40SM 14/M02 A2981 RMK AO1 T01391016






000
SXUS55 KMSO 231643
OSOMSO
MONTANA AWOS SUMMARY
NATIONAL WEATHER SERVICE MISSOULA MT
1043 AM MDT THU OCT 23 2014

Montana AWOS Reports

LAUREL      |K6S8 231635Z AUTO 21014G18KT 40SM 16/M04 A2990 RMK AO1 T01611038
ROUNDUP     |KRPX 231635Z AUTO 21013KT 40SM 14/M02 A2981 RMK AO1 T01391016






000
SXUS55 KMSO 231624
OSOMSO
MONTANA AWOS SUMMARY
NATIONAL WEATHER SERVICE MISSOULA MT
1023 AM MDT THU OCT 23 2014

Montana AWOS Reports

MALTA       |KM75 231555Z AUTO 00000KT 40SM 08/02 A2975 RMK AO1 T00830022
LAUREL      |K6S8 231615Z AUTO 20013G20KT 40SM 16/M04 A2991 RMK AO1 T01561038
ROUNDUP     |KRPX 231615Z AUTO 20008KT 40SM 13/M02 A2981 RMK AO1 T01331016






000
SXUS55 KMSO 231604
OSOMSO
MONTANA AWOS SUMMARY
NATIONAL WEATHER SERVICE MISSOULA MT
1003 AM MDT THU OCT 23 2014

Montana AWOS Reports

LAUREL      |K6S8 231555Z AUTO 20011G18KT 40SM 14/M05 A2992 RMK AO1 T01391049
ROUNDUP     |KRPX 231555Z AUTO 21010G16KT 40SM 12/M03 A2982 RMK AO1 T01221027
PLAINS      |KS34 231555Z AUTO 00000KT 15SM 09/07 A2986 RMK AO1 T00890067






000
SXUS55 KMSO 231544
OSOMSO
MONTANA AWOS SUMMARY
NATIONAL WEATHER SERVICE MISSOULA MT
943 AM MDT THU OCT 23 2014

Montana AWOS Reports

LAUREL      |K6S8 231535Z AUTO 21012G17KT 40SM 13/M06 A2990 RMK AO1 T01331055
ROUNDUP     |KRPX 231535Z AUTO 20012KT 40SM 10/M03 A2981 RMK AO1 T01001032






000
SXUS55 KMSO 231523
OSOMSO
MONTANA AWOS SUMMARY
NATIONAL WEATHER SERVICE MISSOULA MT
923 AM MDT THU OCT 23 2014

Montana AWOS Reports

LAUREL      |K6S8 231515Z AUTO 20010G15KT 40SM 14/M05 A2991 RMK AO1 T01391049
ROUNDUP     |KRPX 231515Z AUTO 18005KT 40SM 08/M04 A2980 RMK AO1 T00831038






000
SXUS55 KMSO 231513
OSOMSO
MONTANA AWOS SUMMARY
NATIONAL WEATHER SERVICE MISSOULA MT
913 AM MDT THU OCT 23 2014

Montana AWOS Reports

SCOBEY      |K9S2 231455Z AUTO 00000KT 40SM 06/M01 A2978 RMK AO1 T00611010






000
SXUS55 KMSO 231503
OSOMSO
MONTANA AWOS SUMMARY
NATIONAL WEATHER SERVICE MISSOULA MT
903 AM MDT THU OCT 23 2014

Montana AWOS Reports

LAUREL      |K6S8 231455Z AUTO 21009G14KT 40SM 13/M06 A2991 RMK AO1 T01331055
ROUNDUP     |KRPX 231455Z AUTO 20005KT 40SM 07/M04 A2981 RMK AO1 T00671038






000
SXUS55 KMSO 231443
OSOMSO
MONTANA AWOS SUMMARY
NATIONAL WEATHER SERVICE MISSOULA MT
843 AM MDT THU OCT 23 2014

Montana AWOS Reports

LAUREL      |K6S8 231435Z AUTO 22006KT 40SM 12/M06 A2991 RMK AO1 T01171060
ROUNDUP     |KRPX 231435Z AUTO 19005KT 40SM 06/M04 A2981 RMK AO1 T00611038






000
SXUS55 KMSO 231443
OSOMSO
MONTANA AWOS SUMMARY
NATIONAL WEATHER SERVICE MISSOULA MT
843 AM MDT THU OCT 23 2014

Montana AWOS Reports

LAUREL      |K6S8 231435Z AUTO 22006KT 40SM 12/M06 A2991 RMK AO1 T01171060
ROUNDUP     |KRPX 231435Z AUTO 19005KT 40SM 06/M04 A2981 RMK AO1 T00611038






000
SXUS55 KMSO 231423
OSOMSO
MONTANA AWOS SUMMARY
NATIONAL WEATHER SERVICE MISSOULA MT
823 AM MDT THU OCT 23 2014

Montana AWOS Reports

LAUREL      |K6S8 231415Z AUTO 00000KT 40SM 11/M06 A2991 RMK AO1 T01111055
ROUNDUP     |KRPX 231415Z AUTO 18007KT 40SM 06/M04 A2981 RMK AO1 T00561043






000
SXUS55 KMSO 231423
OSOMSO
MONTANA AWOS SUMMARY
NATIONAL WEATHER SERVICE MISSOULA MT
823 AM MDT THU OCT 23 2014

Montana AWOS Reports

LAUREL      |K6S8 231415Z AUTO 00000KT 40SM 11/M06 A2991 RMK AO1 T01111055
ROUNDUP     |KRPX 231415Z AUTO 18007KT 40SM 06/M04 A2981 RMK AO1 T00561043






000
SXUS55 KMSO 231413
OSOMSO
MONTANA AWOS SUMMARY
NATIONAL WEATHER SERVICE MISSOULA MT
813 AM MDT THU OCT 23 2014

Montana AWOS Reports

PLAINS      |KS34 231355Z AUTO 00000KT 7SM 09/06 A2986 RMK AO1 T00890061
SCOBEY      |K9S2 231355Z AUTO 00000KT 40SM 02/M03 A2978 RMK AO1 T00221032
MALTA       |KM75 231355Z AUTO 00000KT 40SM 02/M01 A2975 RMK AO1 T00221005






000
SXUS55 KMSO 231413
OSOMSO
MONTANA AWOS SUMMARY
NATIONAL WEATHER SERVICE MISSOULA MT
813 AM MDT THU OCT 23 2014

Montana AWOS Reports

PLAINS      |KS34 231355Z AUTO 00000KT 7SM 09/06 A2986 RMK AO1 T00890061
SCOBEY      |K9S2 231355Z AUTO 00000KT 40SM 02/M03 A2978 RMK AO1 T00221032
MALTA       |KM75 231355Z AUTO 00000KT 40SM 02/M01 A2975 RMK AO1 T00221005






000
SXUS55 KMSO 231353
OSOMSO
MONTANA AWOS SUMMARY
NATIONAL WEATHER SERVICE MISSOULA MT
752 AM MDT THU OCT 23 2014

Montana AWOS Reports

LAUREL      |K6S8 231335Z AUTO 22007KT 40SM 12/M07 A2991 RMK AO1 T01171071
ROUNDUP     |KRPX 231335Z AUTO 18004KT 40SM 07/M04 A2981 RMK AO1 T00671043






000
SXUS55 KMSO 231324
OSOMSO
MONTANA AWOS SUMMARY
NATIONAL WEATHER SERVICE MISSOULA MT
723 AM MDT THU OCT 23 2014

Montana AWOS Reports

LAUREL      |K6S8 231315Z AUTO 24008KT 40SM 11/M07 A2991 RMK AO1 T01111071
ROUNDUP     |KRPX 231315Z AUTO 00000KT 40SM 06/M05 A2982 RMK AO1 T00561049






000
SXUS55 KMSO 231313
OSOMSO
MONTANA AWOS SUMMARY
NATIONAL WEATHER SERVICE MISSOULA MT
713 AM MDT THU OCT 23 2014

Montana AWOS Reports

PLAINS      |KS34 231255Z AUTO 00000KT 7SM 09/06 A2985 RMK AO1 T00940061
SCOBEY      |K9S2 231255Z AUTO 00000KT 40SM 02/M03 A2979 RMK AO1 T00221032
MALTA       |KM75 231255Z AUTO 00000KT 40SM 02/M01 A2975 RMK AO1 T00171010






000
SXUS55 KMSO 231303
OSOMSO
MONTANA AWOS SUMMARY
NATIONAL WEATHER SERVICE MISSOULA MT
703 AM MDT THU OCT 23 2014

Montana AWOS Reports

LAUREL      |K6S8 231255Z AUTO 23008KT 40SM 12/M06 A2991 RMK AO1 T01171060
ROUNDUP     |KRPX 231255Z AUTO 18005KT 40SM 07/M05 A2981 RMK AO1 T00671049






000
SXUS55 KMSO 231243
OSOMSO
MONTANA AWOS SUMMARY
NATIONAL WEATHER SERVICE MISSOULA MT
643 AM MDT THU OCT 23 2014

Montana AWOS Reports

LAUREL      |K6S8 231235Z AUTO 23008KT 40SM 12/M07 A2991 RMK AO1 T01171066
ROUNDUP     |KRPX 231235Z AUTO 19006KT 40SM 07/M06 A2981 RMK AO1 T00721055






000
SXUS55 KMSO 231224
OSOMSO
MONTANA AWOS SUMMARY
NATIONAL WEATHER SERVICE MISSOULA MT
623 AM MDT THU OCT 23 2014

Montana AWOS Reports

LAUREL      |K6S8 231215Z AUTO 23009KT 40SM 11/M07 A2991 RMK AO1 T01111066
ROUNDUP     |KRPX 231215Z AUTO 21004KT 40SM 07/M05 A2982 RMK AO1 T00671049






000
SXUS55 KMSO 231213
OSOMSO
MONTANA AWOS SUMMARY
NATIONAL WEATHER SERVICE MISSOULA MT
613 AM MDT THU OCT 23 2014

Montana AWOS Reports

SCOBEY      |K9S2 231155Z AUTO 00000KT 40SM 04/M02 A2980 RMK AO1 T00391016
MALTA       |KM75 231155Z AUTO 00000KT 40SM 01/M02 A2976 RMK AO1 T00111016






000
SXUS55 KMSO 231204
OSOMSO
MONTANA AWOS SUMMARY
NATIONAL WEATHER SERVICE MISSOULA MT
603 AM MDT THU OCT 23 2014

Montana AWOS Reports

LAUREL      |K6S8 231155Z AUTO 22007KT 40SM 10/M06 A2991 RMK AO1 T01001060
ROUNDUP     |KRPX 231155Z AUTO 00000KT 40SM 06/M06 A2982 RMK AO1 T00611055
PLAINS      |KS34 231155Z AUTO 00000KT 40SM 09/06 A2983 RMK AO1 T00890056






000
SXUS55 KMSO 231143
OSOMSO
MONTANA AWOS SUMMARY
NATIONAL WEATHER SERVICE MISSOULA MT
543 AM MDT THU OCT 23 2014

Montana AWOS Reports

LAUREL      |K6S8 231135Z AUTO 00000KT 40SM 08/M06 A2991 RMK AO1 T00831060
ROUNDUP     |KRPX 231135Z AUTO 00000KT 40SM 06/M06 A2982 RMK AO1 T00611060






000
SXUS55 KMSO 231124
OSOMSO
MONTANA AWOS SUMMARY
NATIONAL WEATHER SERVICE MISSOULA MT
523 AM MDT THU OCT 23 2014

Montana AWOS Reports

LAUREL      |K6S8 231115Z AUTO 21004KT 40SM 08/M07 A2991 RMK AO1 T00831066
ROUNDUP     |KRPX 231115Z AUTO 00000KT 40SM 08/M06 A2982 RMK AO1 T00781055






000
SXUS55 KMSO 231103
OSOMSO
MONTANA AWOS SUMMARY
NATIONAL WEATHER SERVICE MISSOULA MT
503 AM MDT THU OCT 23 2014

Montana AWOS Reports

LAUREL      |K6S8 231055Z AUTO 21004KT 40SM 10/M06 A2992 RMK AO1 T01001055
ROUNDUP     |KRPX 231055Z AUTO 21005KT 40SM 08/M06 A2982 RMK AO1 T00831055
SCOBEY      |K9S2 231055Z AUTO 00000KT 40SM 02/M03 A2980 RMK AO1 T00171032
MALTA       |KM75 231055Z AUTO 00000KT 40SM 01/M02 A2976 RMK AO1 T00111021






000
SXUS55 KMSO 231053
OSOMSO
MONTANA AWOS SUMMARY
NATIONAL WEATHER SERVICE MISSOULA MT
453 AM MDT THU OCT 23 2014

Montana AWOS Reports

LAUREL      |K6S8 231035Z AUTO 22006KT 40SM 11/M07 A2993 RMK AO1 T01061066
ROUNDUP     |KRPX 231035Z AUTO 21006KT 40SM 07/M06 A2982 RMK AO1 T00721055






000
SXUS55 KMSO 231033
OSOMSO
MONTANA AWOS SUMMARY
NATIONAL WEATHER SERVICE MISSOULA MT
432 AM MDT THU OCT 23 2014

Montana AWOS Reports

LAUREL      |K6S8 231015Z AUTO 22007KT 40SM 09/M06 A2992 RMK AO1 T00891060
ROUNDUP     |KRPX 231015Z AUTO 00000KT 40SM 06/M06 A2982 RMK AO1 T00611055






000
SXUS55 KMSO 231004
OSOMSO
MONTANA AWOS SUMMARY
NATIONAL WEATHER SERVICE MISSOULA MT
403 AM MDT THU OCT 23 2014

Montana AWOS Reports

LAUREL      |K6S8 230955Z AUTO 25004KT 40SM 09/M06 A2992 RMK AO1 T00941060
ROUNDUP     |KRPX 230955Z AUTO 20006KT 40SM 07/M05 A2982 RMK AO1 T00671049
PLAINS      |KS34 230955Z AUTO 00000KT 40SM 09/05 A2987 RMK AO1 T00940050
MALTA       |KM75 230955Z AUTO 00000KT 40SM 02/M02 A2978 RMK AO1 T00171016
SCOBEY      |K9S2 230955Z AUTO 00000KT 40SM 01/M04 A2980 RMK AO1 T00111038






000
SXUS55 KMSO 231004
OSOMSO
MONTANA AWOS SUMMARY
NATIONAL WEATHER SERVICE MISSOULA MT
403 AM MDT THU OCT 23 2014

Montana AWOS Reports

LAUREL      |K6S8 230955Z AUTO 25004KT 40SM 09/M06 A2992 RMK AO1 T00941060
ROUNDUP     |KRPX 230955Z AUTO 20006KT 40SM 07/M05 A2982 RMK AO1 T00671049
PLAINS      |KS34 230955Z AUTO 00000KT 40SM 09/05 A2987 RMK AO1 T00940050
MALTA       |KM75 230955Z AUTO 00000KT 40SM 02/M02 A2978 RMK AO1 T00171016
SCOBEY      |K9S2 230955Z AUTO 00000KT 40SM 01/M04 A2980 RMK AO1 T00111038






000
SXUS55 KMSO 230943
OSOMSO
MONTANA AWOS SUMMARY
NATIONAL WEATHER SERVICE MISSOULA MT
343 AM MDT THU OCT 23 2014

Montana AWOS Reports

LAUREL      |K6S8 230935Z AUTO 00000KT 40SM 09/M07 A2992 RMK AO1 T00891066
ROUNDUP     |KRPX 230935Z AUTO 20004KT 40SM 06/M05 A2982 RMK AO1 T00611049






000
SXUS55 KMSO 230943
OSOMSO
MONTANA AWOS SUMMARY
NATIONAL WEATHER SERVICE MISSOULA MT
343 AM MDT THU OCT 23 2014

Montana AWOS Reports

LAUREL      |K6S8 230935Z AUTO 00000KT 40SM 09/M07 A2992 RMK AO1 T00891066
ROUNDUP     |KRPX 230935Z AUTO 20004KT 40SM 06/M05 A2982 RMK AO1 T00611049






000
SXUS55 KMSO 230924
OSOMSO
MONTANA AWOS SUMMARY
NATIONAL WEATHER SERVICE MISSOULA MT
323 AM MDT THU OCT 23 2014

Montana AWOS Reports

LAUREL      |K6S8 230915Z AUTO 00000KT 40SM 09/M07 A2992 RMK AO1 T00941066
ROUNDUP     |KRPX 230915Z AUTO 00000KT 40SM 06/M05 A2983 RMK AO1 T00561049






000
SXUS55 KMSO 230913
OSOMSO
MONTANA AWOS SUMMARY
NATIONAL WEATHER SERVICE MISSOULA MT
313 AM MDT THU OCT 23 2014

Montana AWOS Reports

SCOBEY      |K9S2 230855Z AUTO 00000KT 40SM 02/M04 A2981 RMK AO1 T00171038
MALTA       |KM75 230855Z AUTO 00000KT 40SM 02/M02 A2978 RMK AO1 T00221016






000
SXUS55 KMSO 230904
OSOMSO
MONTANA AWOS SUMMARY
NATIONAL WEATHER SERVICE MISSOULA MT
303 AM MDT THU OCT 23 2014

Montana AWOS Reports

LAUREL      |K6S8 230855Z AUTO 24006KT 40SM 09/M07 A2993 RMK AO1 T00941066
ROUNDUP     |KRPX 230855Z AUTO 20004KT 40SM 05/M04 A2983 RMK AO1 T00501043
PLAINS      |KS34 230855Z AUTO 00000KT 25SM 09/05 A2987 RMK AO1 T00890050






000
SXUS55 KMSO 230843
OSOMSO
MONTANA AWOS SUMMARY
NATIONAL WEATHER SERVICE MISSOULA MT
243 AM MDT THU OCT 23 2014

Montana AWOS Reports

LAUREL      |K6S8 230835Z AUTO 00000KT 40SM 09/M07 A2993 RMK AO1 T00891066
ROUNDUP     |KRPX 230835Z AUTO 00000KT 40SM 05/M04 A2983 RMK AO1 T00501043






000
SXUS55 KMSO 230823
OSOMSO
MONTANA AWOS SUMMARY
NATIONAL WEATHER SERVICE MISSOULA MT
223 AM MDT THU OCT 23 2014

Montana AWOS Reports

LAUREL      |K6S8 230815Z AUTO 24005KT 40SM 09/M06 A2993 RMK AO1 T00941060
ROUNDUP     |KRPX 230815Z AUTO 18004KT 40SM 05/M04 A2983 RMK AO1 T00501043






000
SXUS55 KMSO 230803
OSOMSO
MONTANA AWOS SUMMARY
NATIONAL WEATHER SERVICE MISSOULA MT
203 AM MDT THU OCT 23 2014

Montana AWOS Reports

LAUREL      |K6S8 230755Z AUTO 23007KT 40SM 09/M06 A2993 RMK AO1 T00941060
ROUNDUP     |KRPX 230755Z AUTO 00000KT 40SM 07/M04 A2983 RMK AO1 T00671038
PLAINS      |KS34 230755Z AUTO 00000KT 15SM 07/04 A2987 RMK AO1 T00720044
SCOBEY      |K9S2 230755Z AUTO 00000KT 40SM 03/M03 A2982 RMK AO1 T00281032
MALTA       |KM75 230755Z AUTO 00000KT 40SM 05/M01 A2978 RMK AO1 T00501005






000
SXUS55 KMSO 230743
OSOMSO
MONTANA AWOS SUMMARY
NATIONAL WEATHER SERVICE MISSOULA MT
143 AM MDT THU OCT 23 2014

Montana AWOS Reports

LAUREL      |K6S8 230735Z AUTO 23007KT 40SM 08/M07 A2993 RMK AO1 T00831071
ROUNDUP     |KRPX 230735Z AUTO 20006KT 40SM 07/M04 A2984 RMK AO1 T00721038






000
SXUS55 KMSO 230723
OSOMSO
MONTANA AWOS SUMMARY
NATIONAL WEATHER SERVICE MISSOULA MT
123 AM MDT THU OCT 23 2014

Montana AWOS Reports

LAUREL      |K6S8 230715Z AUTO 00000KT 40SM 09/M07 A2994 RMK AO1 T00891066
ROUNDUP     |KRPX 230715Z AUTO 19005KT 40SM 07/M04 A2984 RMK AO1 T00671038






000
SXUS55 KMSO 230703
OSOMSO
MONTANA AWOS SUMMARY
NATIONAL WEATHER SERVICE MISSOULA MT
103 AM MDT THU OCT 23 2014

Montana AWOS Reports

LAUREL      |K6S8 230655Z AUTO 22004KT 40SM 09/M06 A2994 RMK AO1 T00941060
ROUNDUP     |KRPX 230655Z AUTO 19005KT 40SM 07/M04 A2984 RMK AO1 T00671038
SCOBEY      |K9S2 230655Z AUTO 00000KT 40SM 03/M03 A2983 RMK AO1 T00331027
PLAINS      |KS34 230655Z AUTO 00000KT 25SM 07/04 A2986 RMK AO1 T00720039
MALTA       |KM75 230655Z AUTO 00000KT 40SM 04/00 A2979 RMK AO1 T00440000






000
SXUS55 KMSO 230653
OSOMSO
MONTANA AWOS SUMMARY
NATIONAL WEATHER SERVICE MISSOULA MT
1253 AM MDT THU OCT 23 2014

Montana AWOS Reports

LAUREL      |K6S8 230635Z AUTO 00000KT 40SM 10/M06 A2994 RMK AO1 T01001060
ROUNDUP     |KRPX 230635Z AUTO 19006KT 40SM 07/M04 A2985 RMK AO1 T00671038






000
SXUS55 KMSO 230623
OSOMSO
MONTANA AWOS SUMMARY
NATIONAL WEATHER SERVICE MISSOULA MT
1223 AM MDT THU OCT 23 2014

Montana AWOS Reports

LAUREL      |K6S8 230615Z AUTO 21004KT 40SM 10/M07 A2995 RMK AO1 T01001066
ROUNDUP     |KRPX 230615Z AUTO 19004KT 40SM 08/M04 A2986 RMK AO1 T00781038






000
SXUS55 KMSO 230603
OSOMSO
MONTANA AWOS SUMMARY
NATIONAL WEATHER SERVICE MISSOULA MT
1203 AM MDT THU OCT 23 2014

Montana AWOS Reports

LAUREL      |K6S8 230555Z AUTO 22007KT 40SM 09/M06 A2996 RMK AO1 T00941060
ROUNDUP     |KRPX 230555Z AUTO 21009G15KT 40SM 09/M03 A2986 RMK AO1 T00891032
SCOBEY      |K9S2 230555Z AUTO 00000KT 40SM 04/M03 A2983 RMK AO1 T00391027
MALTA       |KM75 230555Z AUTO 00000KT 40SM 02/M01 A2981 RMK AO1 T00221010
PLAINS      |KS34 230555Z AUTO 00000KT 25SM 07/03 A2985 RMK AO1 T00720033






000
SXUS55 KMSO 230544
OSOMSO
MONTANA AWOS SUMMARY
NATIONAL WEATHER SERVICE MISSOULA MT
1143 PM MDT WED OCT 22 2014

Montana AWOS Reports

LAUREL      |K6S8 230535Z AUTO 22004KT 40SM 07/M06 A2996 RMK AO1 T00721060
ROUNDUP     |KRPX 230535Z AUTO 19007KT 40SM 09/M03 A2986 RMK AO1 T00941032






000
SXUS55 KMSO 230523
OSOMSO
MONTANA AWOS SUMMARY
NATIONAL WEATHER SERVICE MISSOULA MT
1123 PM MDT WED OCT 22 2014

Montana AWOS Reports

LAUREL      |K6S8 230515Z AUTO 00000KT 40SM 07/M06 A2996 RMK AO1 T00671060
ROUNDUP     |KRPX 230515Z AUTO 20004KT 40SM 09/M03 A2986 RMK AO1 T00891032






000
SXUS55 KMSO 230503
OSOMSO
MONTANA AWOS SUMMARY
NATIONAL WEATHER SERVICE MISSOULA MT
1103 PM MDT WED OCT 22 2014

Montana AWOS Reports

LAUREL      |K6S8 230455Z AUTO 00000KT 40SM 09/M06 A2996 RMK AO1 T00891060
ROUNDUP     |KRPX 230455Z AUTO 00000KT 40SM 09/M03 A2987 RMK AO1 T00891032
MALTA       |KM75 230455Z AUTO 00000KT 40SM 02/M01 A2982 RMK AO1 T00221010






000
SXUS55 KMSO 230503
OSOMSO
MONTANA AWOS SUMMARY
NATIONAL WEATHER SERVICE MISSOULA MT
1103 PM MDT WED OCT 22 2014

Montana AWOS Reports

LAUREL      |K6S8 230455Z AUTO 00000KT 40SM 09/M06 A2996 RMK AO1 T00891060
ROUNDUP     |KRPX 230455Z AUTO 00000KT 40SM 09/M03 A2987 RMK AO1 T00891032
MALTA       |KM75 230455Z AUTO 00000KT 40SM 02/M01 A2982 RMK AO1 T00221010






000
SXUS55 KMSO 230444
OSOMSO
MONTANA AWOS SUMMARY
NATIONAL WEATHER SERVICE MISSOULA MT
1043 PM MDT WED OCT 22 2014

Montana AWOS Reports

LAUREL      |K6S8 230435Z AUTO 00000KT 40SM 11/M07 A2997 RMK AO1 T01061071
ROUNDUP     |KRPX 230435Z AUTO 00000KT 40SM 08/M03 A2987 RMK AO1 T00831027






000
SXUS55 KMSO 230444
OSOMSO
MONTANA AWOS SUMMARY
NATIONAL WEATHER SERVICE MISSOULA MT
1043 PM MDT WED OCT 22 2014

Montana AWOS Reports

LAUREL      |K6S8 230435Z AUTO 00000KT 40SM 11/M07 A2997 RMK AO1 T01061071
ROUNDUP     |KRPX 230435Z AUTO 00000KT 40SM 08/M03 A2987 RMK AO1 T00831027






000
SXUS55 KMSO 230423
OSOMSO
MONTANA AWOS SUMMARY
NATIONAL WEATHER SERVICE MISSOULA MT
1023 PM MDT WED OCT 22 2014

Montana AWOS Reports

LAUREL      |K6S8 230415Z AUTO 23005KT 40SM 11/M07 A2997 RMK AO1 T01111066
ROUNDUP     |KRPX 230415Z AUTO 22007KT 40SM 09/M03 A2987 RMK AO1 T00891027






000
SXUS55 KMSO 230404
OSOMSO
MONTANA AWOS SUMMARY
NATIONAL WEATHER SERVICE MISSOULA MT
1003 PM MDT WED OCT 22 2014

Montana AWOS Reports

LAUREL      |K6S8 230355Z AUTO 25004KT 40SM 12/M07 A2997 RMK AO1 T01171066
ROUNDUP     |KRPX 230355Z AUTO 20005KT 40SM 08/M03 A2987 RMK AO1 T00781032
SCOBEY      |K9S2 230355Z AUTO 00000KT 40SM 05/M02 A2985 RMK AO1 T00501021
MALTA       |KM75 230355Z AUTO 00000KT 40SM 03/M01 A2983 RMK AO1 T00331005
PLAINS      |KS34 230355Z AUTO 00000KT 25SM 08/03 A2986 RMK AO1 T00780033






000
SXUS55 KMSO 230404
OSOMSO
MONTANA AWOS SUMMARY
NATIONAL WEATHER SERVICE MISSOULA MT
1003 PM MDT WED OCT 22 2014

Montana AWOS Reports

LAUREL      |K6S8 230355Z AUTO 25004KT 40SM 12/M07 A2997 RMK AO1 T01171066
ROUNDUP     |KRPX 230355Z AUTO 20005KT 40SM 08/M03 A2987 RMK AO1 T00781032
SCOBEY      |K9S2 230355Z AUTO 00000KT 40SM 05/M02 A2985 RMK AO1 T00501021
MALTA       |KM75 230355Z AUTO 00000KT 40SM 03/M01 A2983 RMK AO1 T00331005
PLAINS      |KS34 230355Z AUTO 00000KT 25SM 08/03 A2986 RMK AO1 T00780033






000
SXUS55 KMSO 230343
OSOMSO
MONTANA AWOS SUMMARY
NATIONAL WEATHER SERVICE MISSOULA MT
943 PM MDT WED OCT 22 2014

Montana AWOS Reports

LAUREL      |K6S8 230335Z AUTO 24006KT 40SM 12/M06 A2997 RMK AO1 T01171060
ROUNDUP     |KRPX 230335Z AUTO 21004KT 40SM 08/M03 A2988 RMK AO1 T00831032






000
SXUS55 KMSO 230343
OSOMSO
MONTANA AWOS SUMMARY
NATIONAL WEATHER SERVICE MISSOULA MT
943 PM MDT WED OCT 22 2014

Montana AWOS Reports

LAUREL      |K6S8 230335Z AUTO 24006KT 40SM 12/M06 A2997 RMK AO1 T01171060
ROUNDUP     |KRPX 230335Z AUTO 21004KT 40SM 08/M03 A2988 RMK AO1 T00831032






000
SXUS55 KMSO 230323
OSOMSO
MONTANA AWOS SUMMARY
NATIONAL WEATHER SERVICE MISSOULA MT
923 PM MDT WED OCT 22 2014

Montana AWOS Reports

LAUREL      |K6S8 230315Z AUTO 25005KT 40SM 12/M06 A2997 RMK AO1 T01171060
ROUNDUP     |KRPX 230315Z AUTO 00000KT 40SM 09/M03 A2988 RMK AO1 T00941027






000
SXUS55 KMSO 230313
OSOMSO
MONTANA AWOS SUMMARY
NATIONAL WEATHER SERVICE MISSOULA MT
912 PM MDT WED OCT 22 2014

Montana AWOS Reports

LAUREL      |K6S8 230255Z AUTO 24004KT 40SM 11/M06 A2996 RMK AO1 T01111055
ROUNDUP     |KRPX 230255Z AUTO 00000KT 40SM 10/M03 A2988 RMK AO1 T01001027
MALTA       |KM75 230255Z AUTO 00000KT 40SM 04/M01 A2984 RMK AO1 T00441005
SCOBEY      |K9S2 230255Z AUTO 25005KT 40SM 07/M02 A2985 RMK AO1 T00671016






000
SXUS55 KMSO 230303
OSOMSO
MONTANA AWOS SUMMARY
NATIONAL WEATHER SERVICE MISSOULA MT
903 PM MDT WED OCT 22 2014

Montana AWOS Reports

PLAINS      |KS34 230255Z AUTO 00000KT 25SM 08/03 A2986 RMK AO1 T00830033






000
SXUS55 KMSO 230243
OSOMSO
MONTANA AWOS SUMMARY
NATIONAL WEATHER SERVICE MISSOULA MT
843 PM MDT WED OCT 22 2014

Montana AWOS Reports

LAUREL      |K6S8 230235Z AUTO 23006KT 40SM 10/M06 A2996 RMK AO1 T01001055
ROUNDUP     |KRPX 230235Z AUTO 00000KT 40SM 09/M04 A2987 RMK AO1 T00941038






000
SXUS55 KMSO 230223
OSOMSO
MONTANA AWOS SUMMARY
NATIONAL WEATHER SERVICE MISSOULA MT
823 PM MDT WED OCT 22 2014

Montana AWOS Reports

MALTA       |KM75 230155Z AUTO 00000KT 40SM 06/M01 A2983 RMK AO1 T00561005
LAUREL      |K6S8 230215Z AUTO 00000KT 40SM 09/M06 A2995 RMK AO1 T00941060
ROUNDUP     |KRPX 230215Z AUTO 00000KT 40SM 11/M04 A2987 RMK AO1 T01061038






000
SXUS55 KMSO 230203
OSOMSO
MONTANA AWOS SUMMARY
NATIONAL WEATHER SERVICE MISSOULA MT
803 PM MDT WED OCT 22 2014

Montana AWOS Reports

SCOBEY      |K9S2 230155Z AUTO 25006KT 40SM 08/M01 A2985 RMK AO1 T00831010
PLAINS      |KS34 230155Z AUTO 00000KT 40SM 10/03 A2989 RMK AO1 T01000033
LAUREL      |K6S8 230155Z AUTO 00000KT 40SM 11/M06 A2995 RMK AO1 T01061055
ROUNDUP     |KRPX 230155Z AUTO 00000KT 40SM 11/M04 A2987 RMK AO1 T01061038






000
SXUS55 KMSO 230203
OSOMSO
MONTANA AWOS SUMMARY
NATIONAL WEATHER SERVICE MISSOULA MT
803 PM MDT WED OCT 22 2014

Montana AWOS Reports

SCOBEY      |K9S2 230155Z AUTO 25006KT 40SM 08/M01 A2985 RMK AO1 T00831010
PLAINS      |KS34 230155Z AUTO 00000KT 40SM 10/03 A2989 RMK AO1 T01000033
LAUREL      |K6S8 230155Z AUTO 00000KT 40SM 11/M06 A2995 RMK AO1 T01061055
ROUNDUP     |KRPX 230155Z AUTO 00000KT 40SM 11/M04 A2987 RMK AO1 T01061038






000
SXUS55 KMSO 230144
OSOMSO
MONTANA AWOS SUMMARY
NATIONAL WEATHER SERVICE MISSOULA MT
743 PM MDT WED OCT 22 2014

Montana AWOS Reports

LAUREL      |K6S8 230135Z AUTO 00000KT 40SM 11/M06 A2996 RMK AO1 T01061060
ROUNDUP     |KRPX 230135Z AUTO 26005KT 40SM 11/M04 A2986 RMK AO1 T01111038






000
SXUS55 KMSO 230144
OSOMSO
MONTANA AWOS SUMMARY
NATIONAL WEATHER SERVICE MISSOULA MT
743 PM MDT WED OCT 22 2014

Montana AWOS Reports

LAUREL      |K6S8 230135Z AUTO 00000KT 40SM 11/M06 A2996 RMK AO1 T01061060
ROUNDUP     |KRPX 230135Z AUTO 26005KT 40SM 11/M04 A2986 RMK AO1 T01111038






000
SXUS55 KMSO 230133
OSOMSO
MONTANA AWOS SUMMARY
NATIONAL WEATHER SERVICE MISSOULA MT
733 PM MDT WED OCT 22 2014

Montana AWOS Reports

SCOBEY      |K9S2 230055Z AUTO 00000KT 40SM 09/M01 A2986 RMK AO1 T00891010






000
SXUS55 KMSO 230133
OSOMSO
MONTANA AWOS SUMMARY
NATIONAL WEATHER SERVICE MISSOULA MT
733 PM MDT WED OCT 22 2014

Montana AWOS Reports

SCOBEY      |K9S2 230055Z AUTO 00000KT 40SM 09/M01 A2986 RMK AO1 T00891010






000
SXUS55 KMSO 230123
OSOMSO
MONTANA AWOS SUMMARY
NATIONAL WEATHER SERVICE MISSOULA MT
722 PM MDT WED OCT 22 2014

Montana AWOS Reports

LAUREL      |K6S8 230115Z AUTO 00000KT 40SM 11/M07 A2995 RMK AO1 T01111071
ROUNDUP     |KRPX 230115Z AUTO 26008KT 40SM 12/M04 A2985 RMK AO1 T01221038






000
SXUS55 KMSO 230123
OSOMSO
MONTANA AWOS SUMMARY
NATIONAL WEATHER SERVICE MISSOULA MT
722 PM MDT WED OCT 22 2014

Montana AWOS Reports

LAUREL      |K6S8 230115Z AUTO 00000KT 40SM 11/M07 A2995 RMK AO1 T01111071
ROUNDUP     |KRPX 230115Z AUTO 26008KT 40SM 12/M04 A2985 RMK AO1 T01221038






000
SXUS55 KMSO 230104
OSOMSO
MONTANA AWOS SUMMARY
NATIONAL WEATHER SERVICE MISSOULA MT
703 PM MDT WED OCT 22 2014

Montana AWOS Reports

LAUREL      |K6S8 230055Z AUTO 00000KT 40SM 12/M07 A2996 RMK AO1 T01171071
ROUNDUP     |KRPX 230055Z AUTO 25009KT 40SM 13/M03 A2985 RMK AO1 T01281032
PLAINS      |KS34 230055Z AUTO 00000KT 25SM 14/04 A2989 RMK AO1 T01440039






000
SXUS55 KMSO 230104
OSOMSO
MONTANA AWOS SUMMARY
NATIONAL WEATHER SERVICE MISSOULA MT
703 PM MDT WED OCT 22 2014

Montana AWOS Reports

LAUREL      |K6S8 230055Z AUTO 00000KT 40SM 12/M07 A2996 RMK AO1 T01171071
ROUNDUP     |KRPX 230055Z AUTO 25009KT 40SM 13/M03 A2985 RMK AO1 T01281032
PLAINS      |KS34 230055Z AUTO 00000KT 25SM 14/04 A2989 RMK AO1 T01440039






000
SXUS55 KMSO 230043
OSOMSO
MONTANA AWOS SUMMARY
NATIONAL WEATHER SERVICE MISSOULA MT
643 PM MDT WED OCT 22 2014

Montana AWOS Reports

ROUNDUP     |KRPX 230035Z AUTO 25011KT 40SM 13/M03 A2985 RMK AO1 T01331032
LAUREL      |K6S8 230035Z AUTO 00000KT 40SM 13/M07 A2995 RMK AO1 T01331066






000
SXUS55 KMSO 230043
OSOMSO
MONTANA AWOS SUMMARY
NATIONAL WEATHER SERVICE MISSOULA MT
643 PM MDT WED OCT 22 2014

Montana AWOS Reports

ROUNDUP     |KRPX 230035Z AUTO 25011KT 40SM 13/M03 A2985 RMK AO1 T01331032
LAUREL      |K6S8 230035Z AUTO 00000KT 40SM 13/M07 A2995 RMK AO1 T01331066






000
SXUS55 KMSO 230023
OSOMSO
MONTANA AWOS SUMMARY
NATIONAL WEATHER SERVICE MISSOULA MT
623 PM MDT WED OCT 22 2014

Montana AWOS Reports

LAUREL      |K6S8 230015Z AUTO 25004KT 40SM 15/M06 A2995 RMK AO1 T01501060
ROUNDUP     |KRPX 230015Z AUTO 25010G17KT 40SM 14/M03 A2985 RMK AO1 T01391032






000
SXUS55 KMSO 230023
OSOMSO
MONTANA AWOS SUMMARY
NATIONAL WEATHER SERVICE MISSOULA MT
623 PM MDT WED OCT 22 2014

Montana AWOS Reports

LAUREL      |K6S8 230015Z AUTO 25004KT 40SM 15/M06 A2995 RMK AO1 T01501060
ROUNDUP     |KRPX 230015Z AUTO 25010G17KT 40SM 14/M03 A2985 RMK AO1 T01391032






000
SXUS55 KMSO 230013
OSOMSO
MONTANA AWOS SUMMARY
NATIONAL WEATHER SERVICE MISSOULA MT
612 PM MDT WED OCT 22 2014

Montana AWOS Reports

MALTA       |KM75 222355Z AUTO 00000KT 40SM 14/02 A2982 RMK AO1 T01390022






000
SXUS55 KMSO 230013
OSOMSO
MONTANA AWOS SUMMARY
NATIONAL WEATHER SERVICE MISSOULA MT
612 PM MDT WED OCT 22 2014

Montana AWOS Reports

MALTA       |KM75 222355Z AUTO 00000KT 40SM 14/02 A2982 RMK AO1 T01390022






000
SXUS55 KMSO 230003
OSOMSO
MONTANA AWOS SUMMARY
NATIONAL WEATHER SERVICE MISSOULA MT
603 PM MDT WED OCT 22 2014

Montana AWOS Reports

ROUNDUP     |KRPX 222355Z AUTO 25015G22KT 40SM 15/M04 A2984 RMK AO1 T01501038
SCOBEY      |K9S2 222355Z AUTO 25006KT 40SM 13/00 A2982 RMK AO1 T01330000
LAUREL      |K6S8 222355Z AUTO 00000KT 40SM 17/M06 A2995 RMK AO1 T01671060






000
SXUS55 KMSO 230003
OSOMSO
MONTANA AWOS SUMMARY
NATIONAL WEATHER SERVICE MISSOULA MT
603 PM MDT WED OCT 22 2014

Montana AWOS Reports

ROUNDUP     |KRPX 222355Z AUTO 25015G22KT 40SM 15/M04 A2984 RMK AO1 T01501038
SCOBEY      |K9S2 222355Z AUTO 25006KT 40SM 13/00 A2982 RMK AO1 T01330000
LAUREL      |K6S8 222355Z AUTO 00000KT 40SM 17/M06 A2995 RMK AO1 T01671060






000
SXUS55 KMSO 222344
OSOMSO
MONTANA AWOS SUMMARY
NATIONAL WEATHER SERVICE MISSOULA MT
543 PM MDT WED OCT 22 2014

Montana AWOS Reports

ROUNDUP     |KRPX 222335Z AUTO 25017G23KT 40SM 16/M04 A2984 RMK AO1 T01561038
LAUREL      |K6S8 222335Z AUTO 24005KT 40SM 18/M07 A2994 RMK AO1 T01781066






000
SXUS55 KMSO 222334
OSOMSO
MONTANA AWOS SUMMARY
NATIONAL WEATHER SERVICE MISSOULA MT
533 PM MDT WED OCT 22 2014

Montana AWOS Reports

MALTA       |KM75 222255Z AUTO 21011G15KT 40SM 17/00 A2981 RMK AO1 T01670000






000
SXUS55 KMSO 222323
OSOMSO
MONTANA AWOS SUMMARY
NATIONAL WEATHER SERVICE MISSOULA MT
522 PM MDT WED OCT 22 2014

Montana AWOS Reports

LAUREL      |K6S8 222315Z AUTO 23005KT 40SM 18/M06 A2994 RMK AO1 T01831060
ROUNDUP     |KRPX 222315Z AUTO 25015G21KT 40SM 16/M04 A2984 RMK AO1 T01611038






000
SXUS55 KMSO 222303
OSOMSO
MONTANA AWOS SUMMARY
NATIONAL WEATHER SERVICE MISSOULA MT
503 PM MDT WED OCT 22 2014

Montana AWOS Reports

ROUNDUP     |KRPX 222255Z AUTO 25013G21KT 40SM 16/M04 A2984 RMK AO1 T01611043
LAUREL      |K6S8 222255Z AUTO 24009G14KT 40SM 18/M07 A2994 RMK AO1 T01831066






000
SXUS55 KMSO 222303
OSOMSO
MONTANA AWOS SUMMARY
NATIONAL WEATHER SERVICE MISSOULA MT
503 PM MDT WED OCT 22 2014

Montana AWOS Reports

ROUNDUP     |KRPX 222255Z AUTO 25013G21KT 40SM 16/M04 A2984 RMK AO1 T01611043
LAUREL      |K6S8 222255Z AUTO 24009G14KT 40SM 18/M07 A2994 RMK AO1 T01831066






000
SXUS55 KMSO 222243
OSOMSO
MONTANA AWOS SUMMARY
NATIONAL WEATHER SERVICE MISSOULA MT
443 PM MDT WED OCT 22 2014

Montana AWOS Reports

LAUREL      |K6S8 222235Z AUTO 22008KT 40SM 19/M07 A2994 RMK AO1 T01891071
ROUNDUP     |KRPX 222235Z AUTO 26015G22KT 40SM 17/M04 A2984 RMK AO1 T01671043






000
SXUS55 KMSO 222243
OSOMSO
MONTANA AWOS SUMMARY
NATIONAL WEATHER SERVICE MISSOULA MT
443 PM MDT WED OCT 22 2014

Montana AWOS Reports

LAUREL      |K6S8 222235Z AUTO 22008KT 40SM 19/M07 A2994 RMK AO1 T01891071
ROUNDUP     |KRPX 222235Z AUTO 26015G22KT 40SM 17/M04 A2984 RMK AO1 T01671043






000
SXUS55 KMSO 222223
OSOMSO
MONTANA AWOS SUMMARY
NATIONAL WEATHER SERVICE MISSOULA MT
423 PM MDT WED OCT 22 2014

Montana AWOS Reports

LAUREL      |K6S8 222215Z AUTO 23008KT 40SM 19/M06 A2994 RMK AO1 T01891060
ROUNDUP     |KRPX 222215Z AUTO 26015G20KT 40SM 17/M04 A2984 RMK AO1 T01671043






000
SXUS55 KMSO 222203
OSOMSO
MONTANA AWOS SUMMARY
NATIONAL WEATHER SERVICE MISSOULA MT
403 PM MDT WED OCT 22 2014

Montana AWOS Reports

LAUREL      |K6S8 222155Z AUTO 20008KT 40SM 19/M07 A2994 RMK AO1 T01891071
ROUNDUP     |KRPX 222155Z AUTO 26015G23KT 40SM 17/M05 A2984 RMK AO1 T01721049
SCOBEY      |K9S2 222155Z AUTO 26018G24KT 40SM 16/01 A2980 RMK AO1 T01610011
PLAINS      |KS34 222155Z AUTO 19008KT 40SM 18/02 A2992 RMK AO1 T01780022
MALTA       |KM75 222155Z AUTO 24005KT 40SM 17/00 A2982 RMK AO1 T01720000






000
SXUS55 KMSO 222143
OSOMSO
MONTANA AWOS SUMMARY
NATIONAL WEATHER SERVICE MISSOULA MT
343 PM MDT WED OCT 22 2014

Montana AWOS Reports

LAUREL      |K6S8 222135Z AUTO 22010G14KT 40SM 19/M07 A2994 RMK AO1 T01891071
ROUNDUP     |KRPX 222135Z AUTO 24009G17KT 40SM 17/M05 A2985 RMK AO1 T01721049






000
SXUS55 KMSO 222123
OSOMSO
MONTANA AWOS SUMMARY
NATIONAL WEATHER SERVICE MISSOULA MT
323 PM MDT WED OCT 22 2014

Montana AWOS Reports

ROUNDUP     |KRPX 222115Z AUTO 24013KT 40SM 17/M05 A2985 RMK AO1 T01671049
LAUREL      |K6S8 222115Z AUTO 21008KT 40SM 18/M07 A2995 RMK AO1 T01831071






000
SXUS55 KMSO 222104
OSOMSO
MONTANA AWOS SUMMARY
NATIONAL WEATHER SERVICE MISSOULA MT
303 PM MDT WED OCT 22 2014

Montana AWOS Reports

LAUREL      |K6S8 222055Z AUTO 22010G17KT 40SM 18/M06 A2995 RMK AO1 T01831060
ROUNDUP     |KRPX 222055Z AUTO 24011G17KT 40SM 17/M05 A2985 RMK AO1 T01671049
SCOBEY      |K9S2 222055Z AUTO 25023G28KT 40SM 16/01 A2980 RMK AO1 T01610011
MALTA       |KM75 222055Z AUTO 26009G15KT 40SM 17/00 A2982 RMK AO1 T01670000






000
SXUS55 KMSO 222043
OSOMSO
MONTANA AWOS SUMMARY
NATIONAL WEATHER SERVICE MISSOULA MT
243 PM MDT WED OCT 22 2014

Montana AWOS Reports

LAUREL      |K6S8 222035Z AUTO 20005KT 40SM 18/M05 A2995 RMK AO1 T01831049
ROUNDUP     |KRPX 222035Z AUTO 25015G25KT 40SM 17/M04 A2985 RMK AO1 T01671043






000
SXUS55 KMSO 222024
OSOMSO
MONTANA AWOS SUMMARY
NATIONAL WEATHER SERVICE MISSOULA MT
223 PM MDT WED OCT 22 2014

Montana AWOS Reports

LAUREL      |K6S8 222015Z AUTO 21004KT 40SM 17/M06 A2996 RMK AO1 T01721055
ROUNDUP     |KRPX 222015Z AUTO 24014G22KT 40SM 16/M04 A2986 RMK AO1 T01611038






000
SXUS55 KMSO 222024
OSOMSO
MONTANA AWOS SUMMARY
NATIONAL WEATHER SERVICE MISSOULA MT
223 PM MDT WED OCT 22 2014

Montana AWOS Reports

LAUREL      |K6S8 222015Z AUTO 21004KT 40SM 17/M06 A2996 RMK AO1 T01721055
ROUNDUP     |KRPX 222015Z AUTO 24014G22KT 40SM 16/M04 A2986 RMK AO1 T01611038






000
SXUS55 KMSO 222003
OSOMSO
MONTANA AWOS SUMMARY
NATIONAL WEATHER SERVICE MISSOULA MT
203 PM MDT WED OCT 22 2014

Montana AWOS Reports

LAUREL      |K6S8 221955Z AUTO 00000KT 40SM 17/M05 A2996 RMK AO1 T01721049
ROUNDUP     |KRPX 221955Z AUTO 23015G20KT 40SM 16/M03 A2987 RMK AO1 T01611032
MALTA       |KM75 221955Z AUTO 27010G17KT 40SM 17/01 A2984 RMK AO1 T01670011






000
SXUS55 KMSO 221943
OSOMSO
MONTANA AWOS SUMMARY
NATIONAL WEATHER SERVICE MISSOULA MT
143 PM MDT WED OCT 22 2014

Montana AWOS Reports

LAUREL      |K6S8 221935Z AUTO 21009G13KT 40SM 17/M04 A2996 RMK AO1 T01671043
ROUNDUP     |KRPX 221935Z AUTO 25015G25KT 40SM 16/M04 A2987 RMK AO1 T01561038






000
SXUS55 KMSO 221943
OSOMSO
MONTANA AWOS SUMMARY
NATIONAL WEATHER SERVICE MISSOULA MT
143 PM MDT WED OCT 22 2014

Montana AWOS Reports

LAUREL      |K6S8 221935Z AUTO 21009G13KT 40SM 17/M04 A2996 RMK AO1 T01671043
ROUNDUP     |KRPX 221935Z AUTO 25015G25KT 40SM 16/M04 A2987 RMK AO1 T01561038






000
SXUS55 KMSO 221923
OSOMSO
MONTANA AWOS SUMMARY
NATIONAL WEATHER SERVICE MISSOULA MT
123 PM MDT WED OCT 22 2014

Montana AWOS Reports

LAUREL      |K6S8 221915Z AUTO 21007KT 40SM 17/M04 A2997 RMK AO1 T01671043
ROUNDUP     |KRPX 221915Z AUTO 25016G25KT 40SM 15/M04 A2987 RMK AO1 T01501043






000
SXUS55 KMSO 221913
OSOMSO
MONTANA AWOS SUMMARY
NATIONAL WEATHER SERVICE MISSOULA MT
112 PM MDT WED OCT 22 2014

Montana AWOS Reports

MALTA       |KM75 221855Z AUTO 26014G22KT 40SM 16/02 A2985 RMK AO1 T01610017






000
SXUS55 KMSO 221903
OSOMSO
MONTANA AWOS SUMMARY
NATIONAL WEATHER SERVICE MISSOULA MT
103 PM MDT WED OCT 22 2014

Montana AWOS Reports

LAUREL      |K6S8 221855Z AUTO 21009G13KT 40SM 16/M04 A2998 RMK AO1 T01561038
ROUNDUP     |KRPX 221855Z AUTO 25019G25KT 40SM 15/M04 A2988 RMK AO1 T01501038






000
SXUS55 KMSO 221843
OSOMSO
MONTANA AWOS SUMMARY
NATIONAL WEATHER SERVICE MISSOULA MT
1243 PM MDT WED OCT 22 2014

Montana AWOS Reports

LAUREL      |K6S8 221835Z AUTO 21008KT 40SM 15/M04 A2999 RMK AO1 T01501043
ROUNDUP     |KRPX 221835Z AUTO 25017G26KT 40SM 15/M04 A2988 RMK AO1 T01501038






000
SXUS55 KMSO 221824
OSOMSO
MONTANA AWOS SUMMARY
NATIONAL WEATHER SERVICE MISSOULA MT
1223 PM MDT WED OCT 22 2014

Montana AWOS Reports

LAUREL      |K6S8 221815Z AUTO 21008KT 40SM 15/M04 A2999 RMK AO1 T01501038
ROUNDUP     |KRPX 221815Z AUTO 23013G20KT 40SM 14/M03 A2989 RMK AO1 T01441032






000
SXUS55 KMSO 221804
OSOMSO
MONTANA AWOS SUMMARY
NATIONAL WEATHER SERVICE MISSOULA MT
1203 PM MDT WED OCT 22 2014

Montana AWOS Reports

LAUREL      |K6S8 221755Z AUTO 20009G14KT 40SM 14/M04 A3000 RMK AO1 T01441043
ROUNDUP     |KRPX 221755Z AUTO 22013G19KT 40SM 14/M03 A2990 RMK AO1 T01391032






000
SXUS55 KMSO 221804
OSOMSO
MONTANA AWOS SUMMARY
NATIONAL WEATHER SERVICE MISSOULA MT
1203 PM MDT WED OCT 22 2014

Montana AWOS Reports

LAUREL      |K6S8 221755Z AUTO 20009G14KT 40SM 14/M04 A3000 RMK AO1 T01441043
ROUNDUP     |KRPX 221755Z AUTO 22013G19KT 40SM 14/M03 A2990 RMK AO1 T01391032






000
SXUS55 KMSO 221743
OSOMSO
MONTANA AWOS SUMMARY
NATIONAL WEATHER SERVICE MISSOULA MT
1143 AM MDT WED OCT 22 2014

Montana AWOS Reports

LAUREL      |K6S8 221735Z AUTO 18004KT 40SM 14/M03 A3000 RMK AO1 T01391032
ROUNDUP     |KRPX 221735Z AUTO 24015G20KT 40SM 14/M03 A2990 RMK AO1 T01391032






000
SXUS55 KMSO 221743
OSOMSO
MONTANA AWOS SUMMARY
NATIONAL WEATHER SERVICE MISSOULA MT
1143 AM MDT WED OCT 22 2014

Montana AWOS Reports

LAUREL      |K6S8 221735Z AUTO 18004KT 40SM 14/M03 A3000 RMK AO1 T01391032
ROUNDUP     |KRPX 221735Z AUTO 24015G20KT 40SM 14/M03 A2990 RMK AO1 T01391032






000
SXUS55 KMSO 221733
OSOMSO
MONTANA AWOS SUMMARY
NATIONAL WEATHER SERVICE MISSOULA MT
1133 AM MDT WED OCT 22 2014

Montana AWOS Reports

MALTA       |KM75 221655Z AUTO 24015G21KT 40SM 13/02 A2985 RMK AO1 T01330022






000
SXUS55 KMSO 221733
OSOMSO
MONTANA AWOS SUMMARY
NATIONAL WEATHER SERVICE MISSOULA MT
1133 AM MDT WED OCT 22 2014

Montana AWOS Reports

MALTA       |KM75 221655Z AUTO 24015G21KT 40SM 13/02 A2985 RMK AO1 T01330022






000
SXUS55 KMSO 221723
OSOMSO
MONTANA AWOS SUMMARY
NATIONAL WEATHER SERVICE MISSOULA MT
1123 AM MDT WED OCT 22 2014

Montana AWOS Reports

LAUREL      |K6S8 221715Z AUTO 19009G13KT 40SM 13/M04 A3000 RMK AO1 T01281038
ROUNDUP     |KRPX 221715Z AUTO 24017G23KT 40SM 13/M04 A2991 RMK AO1 T01331038






000
SXUS55 KMSO 221723
OSOMSO
MONTANA AWOS SUMMARY
NATIONAL WEATHER SERVICE MISSOULA MT
1123 AM MDT WED OCT 22 2014

Montana AWOS Reports

LAUREL      |K6S8 221715Z AUTO 19009G13KT 40SM 13/M04 A3000 RMK AO1 T01281038
ROUNDUP     |KRPX 221715Z AUTO 24017G23KT 40SM 13/M04 A2991 RMK AO1 T01331038






000
SXUS55 KMSO 221703
OSOMSO
MONTANA AWOS SUMMARY
NATIONAL WEATHER SERVICE MISSOULA MT
1103 AM MDT WED OCT 22 2014

Montana AWOS Reports

LAUREL      |K6S8 221655Z AUTO VRB05KT 40SM 12/M03 A3001 RMK AO1 T01221032
ROUNDUP     |KRPX 221655Z AUTO 25020G26KT 40SM 13/M03 A2991 RMK AO1 T01281032
SCOBEY      |K9S2 221655Z AUTO 27012G20KT 40SM 11/05 A2979 RMK AO1 T01060050






000
SXUS55 KMSO 221703
OSOMSO
MONTANA AWOS SUMMARY
NATIONAL WEATHER SERVICE MISSOULA MT
1103 AM MDT WED OCT 22 2014

Montana AWOS Reports

LAUREL      |K6S8 221655Z AUTO VRB05KT 40SM 12/M03 A3001 RMK AO1 T01221032
ROUNDUP     |KRPX 221655Z AUTO 25020G26KT 40SM 13/M03 A2991 RMK AO1 T01281032
SCOBEY      |K9S2 221655Z AUTO 27012G20KT 40SM 11/05 A2979 RMK AO1 T01060050






000
SXUS55 KMSO 221653
OSOMSO
MONTANA AWOS SUMMARY
NATIONAL WEATHER SERVICE MISSOULA MT
1053 AM MDT WED OCT 22 2014

Montana AWOS Reports

LAUREL      |K6S8 221635Z AUTO 00000KT 40SM 11/M03 A3001 RMK AO1 T01061027
ROUNDUP     |KRPX 221635Z AUTO 25023G28KT 40SM 12/M03 A2991 RMK AO1 T01221032






000
SXUS55 KMSO 221653
OSOMSO
MONTANA AWOS SUMMARY
NATIONAL WEATHER SERVICE MISSOULA MT
1053 AM MDT WED OCT 22 2014

Montana AWOS Reports

LAUREL      |K6S8 221635Z AUTO 00000KT 40SM 11/M03 A3001 RMK AO1 T01061027
ROUNDUP     |KRPX 221635Z AUTO 25023G28KT 40SM 12/M03 A2991 RMK AO1 T01221032






000
SXUS55 KMSO 221633
OSOMSO
MONTANA AWOS SUMMARY
NATIONAL WEATHER SERVICE MISSOULA MT
1033 AM MDT WED OCT 22 2014

Montana AWOS Reports

MALTA       |KM75 221555Z AUTO 25010G17KT 40SM 12/03 A2985 RMK AO1 T01220033






000
SXUS55 KMSO 221633
OSOMSO
MONTANA AWOS SUMMARY
NATIONAL WEATHER SERVICE MISSOULA MT
1033 AM MDT WED OCT 22 2014

Montana AWOS Reports

MALTA       |KM75 221555Z AUTO 25010G17KT 40SM 12/03 A2985 RMK AO1 T01220033






000
SXUS55 KMSO 221623
OSOMSO
MONTANA AWOS SUMMARY
NATIONAL WEATHER SERVICE MISSOULA MT
1023 AM MDT WED OCT 22 2014

Montana AWOS Reports

LAUREL      |K6S8 221615Z AUTO 00000KT 15SM 10/M02 A3002 RMK AO1 T01001021
ROUNDUP     |KRPX 221615Z AUTO 25012G20KT 40SM 12/M02 A2991 RMK AO1 T01171021






000
SXUS55 KMSO 221623
OSOMSO
MONTANA AWOS SUMMARY
NATIONAL WEATHER SERVICE MISSOULA MT
1023 AM MDT WED OCT 22 2014

Montana AWOS Reports

LAUREL      |K6S8 221615Z AUTO 00000KT 15SM 10/M02 A3002 RMK AO1 T01001021
ROUNDUP     |KRPX 221615Z AUTO 25012G20KT 40SM 12/M02 A2991 RMK AO1 T01171021






000
SXUS55 KMSO 221613
OSOMSO
MONTANA AWOS SUMMARY
NATIONAL WEATHER SERVICE MISSOULA MT
1013 AM MDT WED OCT 22 2014

Montana AWOS Reports

ROUNDUP     |KRPX 221555Z AUTO 40SM 11/M02 A2991 RMK AO1 T01061021






000
SXUS55 KMSO 221604
OSOMSO
MONTANA AWOS SUMMARY
NATIONAL WEATHER SERVICE MISSOULA MT
1003 AM MDT WED OCT 22 2014

Montana AWOS Reports

ROUNDUP     |KRPX 221555Z AUTO 40SM 11/M02 A2991 RMK AO1 T01061021
PLAINS      |KS34 221555Z AUTO 00000KT 1/4SM 02/M01 A3004 RMK AO1 T00171005
LAUREL      |K6S8 221555Z AUTO 00000KT 40SM 08/M03 A3002 RMK AO1 T00831027
SCOBEY      |K9S2 221555Z AUTO 25013G20KT 40SM 10/05 A2979 RMK AO1 T01000050






000
SXUS55 KMSO 221604
OSOMSO
MONTANA AWOS SUMMARY
NATIONAL WEATHER SERVICE MISSOULA MT
1003 AM MDT WED OCT 22 2014

Montana AWOS Reports

ROUNDUP     |KRPX 221555Z AUTO 40SM 11/M02 A2991 RMK AO1 T01061021
PLAINS      |KS34 221555Z AUTO 00000KT 1/4SM 02/M01 A3004 RMK AO1 T00171005
LAUREL      |K6S8 221555Z AUTO 00000KT 40SM 08/M03 A3002 RMK AO1 T00831027
SCOBEY      |K9S2 221555Z AUTO 25013G20KT 40SM 10/05 A2979 RMK AO1 T01000050






000
SXUS55 KMSO 221543
OSOMSO
MONTANA AWOS SUMMARY
NATIONAL WEATHER SERVICE MISSOULA MT
943 AM MDT WED OCT 22 2014

Montana AWOS Reports

ROUNDUP     |KRPX 221535Z AUTO 40SM 09/M02 A2992 RMK AO1 T00941016
LAUREL      |K6S8 221535Z AUTO 00000KT 40SM 07/M03 A3002 RMK AO1 T00721027






000
SXUS55 KMSO 221543
OSOMSO
MONTANA AWOS SUMMARY
NATIONAL WEATHER SERVICE MISSOULA MT
943 AM MDT WED OCT 22 2014

Montana AWOS Reports

ROUNDUP     |KRPX 221535Z AUTO 40SM 09/M02 A2992 RMK AO1 T00941016
LAUREL      |K6S8 221535Z AUTO 00000KT 40SM 07/M03 A3002 RMK AO1 T00721027






000
SXUS55 KMSO 221523
OSOMSO
MONTANA AWOS SUMMARY
NATIONAL WEATHER SERVICE MISSOULA MT
923 AM MDT WED OCT 22 2014

Montana AWOS Reports

ROUNDUP     |KRPX 221515Z AUTO 00000KT 40SM 07/M01 A2992 RMK AO1 T00671010
LAUREL      |K6S8 221515Z AUTO 00000KT 40SM 06/M03 A3002 RMK AO1 T00611032






000
SXUS55 KMSO 221513
OSOMSO
MONTANA AWOS SUMMARY
NATIONAL WEATHER SERVICE MISSOULA MT
913 AM MDT WED OCT 22 2014

Montana AWOS Reports

SCOBEY      |K9S2 221455Z AUTO 40SM 09/04 A2978 RMK AO1 T00890044
MALTA       |KM75 221455Z AUTO 23009G14KT 40SM 10/03 A2984 RMK AO1 T01000028






000
SXUS55 KMSO 221504
OSOMSO
MONTANA AWOS SUMMARY
NATIONAL WEATHER SERVICE MISSOULA MT
903 AM MDT WED OCT 22 2014

Montana AWOS Reports

LAUREL      |K6S8 221455Z AUTO 00000KT 40SM 05/M03 A3001 RMK AO1 T00501032
ROUNDUP     |KRPX 221455Z AUTO 20004KT 40SM 06/M02 A2991 RMK AO1 T00611016
PLAINS      |KS34 221455Z AUTO 00000KT 1/4SM 01/M02 A3004 RMK AO1 T00061016






000
SXUS55 KMSO 221453
OSOMSO
MONTANA AWOS SUMMARY
NATIONAL WEATHER SERVICE MISSOULA MT
853 AM MDT WED OCT 22 2014

Montana AWOS Reports

MALTA       |KM75 221355Z AUTO 26009G15KT 40SM 10/03 A2981 RMK AO1 T01000028






000
SXUS55 KMSO 221443
OSOMSO
MONTANA AWOS SUMMARY
NATIONAL WEATHER SERVICE MISSOULA MT
843 AM MDT WED OCT 22 2014

Montana AWOS Reports

LAUREL      |K6S8 221435Z AUTO 00000KT 40SM 04/M04 A3001 RMK AO1 T00391038
ROUNDUP     |KRPX 221435Z AUTO 00000KT 40SM 06/M02 A2991 RMK AO1 T00561016






000
SXUS55 KMSO 221424
OSOMSO
MONTANA AWOS SUMMARY
NATIONAL WEATHER SERVICE MISSOULA MT
823 AM MDT WED OCT 22 2014

Montana AWOS Reports

LAUREL      |K6S8 221415Z AUTO 00000KT 40SM 03/M04 A3001 RMK AO1 T00281043
ROUNDUP     |KRPX 221415Z AUTO 21006KT 40SM 07/M02 A2990 RMK AO1 T00671016






000
SXUS55 KMSO 221404
OSOMSO
MONTANA AWOS SUMMARY
NATIONAL WEATHER SERVICE MISSOULA MT
803 AM MDT WED OCT 22 2014

Montana AWOS Reports

LAUREL      |K6S8 221355Z AUTO 00000KT 40SM 03/M04 A3001 RMK AO1 T00331043
ROUNDUP     |KRPX 221355Z AUTO 00000KT 40SM 07/M02 A2990 RMK AO1 T00721021
PLAINS      |KS34 221355Z AUTO 00000KT 1/4SM 01/M02 A3003 RMK AO1 T00061016
SCOBEY      |K9S2 221355Z AUTO 24012G17KT 40SM 09/05 A2977 RMK AO1 T00890050






    US Dept of Commerce
    National Oceanic and Atmospheric Administration
    National Weather Service
    1325 East West Highway
    Silver Spring, MD 20910
    Page Author: NWS Internet Services Team
Disclaimer
Information Quality
Credits
Glossary
Privacy Policy
Freedom of Information Act (FOIA)
About Us
Career Opportunities